Observation data for Persimmon Gap on 11/19/2019      Previous  Date       Current Mesonet Observations  Soil Data  Daily Summary Page  Observations in Plain Language
KPG1 190600Z 01006KT 15/03 A2998 RMK A01 T01450034  RH  047%=      5-min Rain = 0
KPG1 190601Z 01006KT 15/04 A2998 RMK A01 T01470035  RH  047%=      5-min Rain = 0
KPG1 190602Z 01005KT 15/04 A2998 RMK A01 T01500036  RH  046%=      5-min Rain = 0
KPG1 190603Z 01005KT 15/04 A2998 RMK A01 T01520036  RH  046%=      5-min Rain = 0
KPG1 190604Z 01005KT 15/04 A2998 RMK A01 T01520035  RH  045%=      5-min Rain = 0
KPG1 190605Z 01006KT 15/04 A2998 RMK A01 T01510035  RH  046%=      5-min Rain = 0
KPG1 190606Z 01006KT 15/04 A2998 RMK A01 T01510035  RH  046%=      5-min Rain = 0
KPG1 190607Z 01006KT 15/04 A2998 RMK A01 T01510035  RH  046%=      5-min Rain = 0
KPG1 190608Z 01006KT 15/04 A2998 RMK A01 T01530036  RH  046%=      5-min Rain = 0
KPG1 190609Z 01005KT 15/04 A2998 RMK A01 T01540036  RH  045%=      5-min Rain = 0
KPG1 190610Z 01004KT 16/04 A2998 RMK A01 T01550036  RH  045%=      5-min Rain = 0
KPG1 190611Z 01004KT 15/04 A2998 RMK A01 T01540035  RH  045%=      5-min Rain = 0
KPG1 190612Z 02004KT 15/04 A2998 RMK A01 T01540036  RH  045%=      5-min Rain = 0
KPG1 190613Z 02004KT 16/04 A2998 RMK A01 T01580037  RH  044%=      5-min Rain = 0
KPG1 190614Z 03004KT 16/04 A2998 RMK A01 T01610037  RH  044%=      5-min Rain = 0
KPG1 190615Z 03004KT 16/04 A2998 RMK A01 T01600036  RH  043%=      5-min Rain = 0
KPG1 190616Z 02003KT 16/03 A2998 RMK A01 T01560034  RH  044%=      5-min Rain = 0
KPG1 190617Z 02004KT 15/03 A2998 RMK A01 T01500031  RH  045%=      5-min Rain = 0
KPG1 190618Z 01004KT 14/03 A2998 RMK A01 T01440031  RH  046%=      5-min Rain = 0
KPG1 190619Z 00005KT 14/03 A2998 RMK A01 T01430033  RH  047%=      5-min Rain = 0
KPG1 190620Z 00005KT 15/04 A2999 RMK A01 T01450035  RH  047%=      5-min Rain = 0
KPG1 190621Z 00005KT 15/04 A2999 RMK A01 T01500037  RH  047%=      5-min Rain = 0
KPG1 190622Z 00005KT 15/04 A2999 RMK A01 T01530037  RH  046%=      5-min Rain = 0
KPG1 190623Z 01005KT 15/04 A2999 RMK A01 T01530036  RH  045%=      5-min Rain = 0
KPG1 190624Z 02004KT 15/04 A2999 RMK A01 T01520036  RH  046%=      5-min Rain = 0
KPG1 190625Z 01005KT 15/04 A2998 RMK A01 T01520035  RH  046%=      5-min Rain = 0
KPG1 190626Z 01006KT 15/04 A2998 RMK A01 T01510036  RH  046%=      5-min Rain = 0
KPG1 190627Z 01006KT 15/04 A2998 RMK A01 T01500035  RH  046%=      5-min Rain = 0
KPG1 190628Z 01006KT 15/04 A2998 RMK A01 T01480035  RH  047%=      5-min Rain = 0
KPG1 190629Z 01006KT 15/04 A2998 RMK A01 T01470035  RH  047%=      5-min Rain = 0
KPG1 190630Z 01006KT 15/04 A2998 RMK A01 T01470036  RH  047%=      5-min Rain = 0
KPG1 190631Z 01007KT 15/04 A2998 RMK A01 T01470036  RH  047%=      5-min Rain = 0
KPG1 190632Z 00007KT 15/04 A2998 RMK A01 T01470036  RH  047%=      5-min Rain = 0
KPG1 190633Z 00007KT 15/04 A2998 RMK A01 T01480036  RH  047%=      5-min Rain = 0
KPG1 190634Z 00007KT 15/04 A2998 RMK A01 T01500037  RH  047%=      5-min Rain = 0
KPG1 190635Z 01007KT 15/04 A2998 RMK A01 T01510037  RH  046%=      5-min Rain = 0
KPG1 190636Z 01006KT 15/04 A2998 RMK A01 T01520037  RH  046%=      5-min Rain = 0
KPG1 190637Z 01006KT 15/04 A2998 RMK A01 T01520037  RH  046%=      5-min Rain = 0
KPG1 190638Z 01005KT 15/04 A2998 RMK A01 T01530037  RH  046%=      5-min Rain = 0
KPG1 190639Z 02004KT 16/04 A2999 RMK A01 T01550037  RH  045%=      5-min Rain = 0
KPG1 190640Z 03003KT 16/04 A2999 RMK A01 T01550037  RH  045%=      5-min Rain = 0
KPG1 190641Z 03002KT 15/04 A2999 RMK A01 T01530035  RH  045%=      5-min Rain = 0
KPG1 190642Z 04002KT 15/03 A2999 RMK A01 T01480034  RH  046%=      5-min Rain = 0
KPG1 190643Z 04003KT 14/03 A2999 RMK A01 T01440033  RH  047%=      5-min Rain = 0
KPG1 190644Z 03003KT 14/03 A2999 RMK A01 T01420033  RH  048%=      5-min Rain = 0
KPG1 190645Z 36003KT 14/03 A2999 RMK A01 T01400033  RH  049%=      5-min Rain = 0
KPG1 190646Z 34002KT 14/03 A2999 RMK A01 T01380032  RH  049%=      5-min Rain = 0
KPG1 190647Z 35002KT 14/03 A2999 RMK A01 T01360031  RH  049%=      5-min Rain = 0
KPG1 190648Z 34002KT 14/03 A2999 RMK A01 T01350032  RH  050%=      5-min Rain = 0
KPG1 190649Z 36002KT 14/03 A2999 RMK A01 T01350033  RH  050%=      5-min Rain = 0
KPG1 190650Z 01002KT 14/04 A2998 RMK A01 T01380035  RH  050%=      5-min Rain = 0
KPG1 190651Z 01002KT 14/04 A2998 RMK A01 T01420037  RH  049%=      5-min Rain = 0
KPG1 190652Z 02003KT 15/04 A2999 RMK A01 T01470038  RH  048%=      5-min Rain = 0
KPG1 190653Z 03002KT 15/04 A2999 RMK A01 T01470035  RH  047%=      5-min Rain = 0
KPG1 190654Z 03002KT 14/03 A2999 RMK A01 T01430033  RH  048%=      5-min Rain = 0
KPG1 190655Z 05002KT 14/03 A2999 RMK A01 T01400033  RH  049%=      5-min Rain = 0
KPG1 190656Z 05003KT 14/03 A2999 RMK A01 T01380033  RH  049%=      5-min Rain = 0
KPG1 190657Z 05002KT 14/03 A2998 RMK A01 T01370034  RH  050%=      5-min Rain = 0
KPG1 190658Z 06003KT 14/03 A2998 RMK A01 T01360033  RH  050%=      5-min Rain = 0
KPG1 190659Z 06003KT 13/03 A2998 RMK A01 T01320032  RH  051%=      5-min Rain = 0
KPG1 190700Z 06003KT 13/03 A2998 RMK A01 T01290032  RH  052%=      5-min Rain = 0
KPG1 190701Z 04003KT 13/03 A2998 RMK A01 T01290033  RH  052%=      5-min Rain = 0
KPG1 190702Z 04004KT 13/03 A2998 RMK A01 T01310034  RH  052%=      5-min Rain = 0
KPG1 190703Z 03004KT 13/03 A2998 RMK A01 T01310034  RH  052%=      5-min Rain = 0
KPG1 190704Z 02004KT 13/03 A2998 RMK A01 T01310034  RH  052%=      5-min Rain = 0
KPG1 190705Z 01004KT 13/03 A2998 RMK A01 T01300034  RH  052%=      5-min Rain = 0
KPG1 190706Z 36004KT 13/04 A2998 RMK A01 T01300035  RH  052%=      5-min Rain = 0
KPG1 190707Z 36005KT 13/04 A2998 RMK A01 T01320036  RH  052%=      5-min Rain = 0
KPG1 190708Z 36005KT 14/04 A2998 RMK A01 T01350036  RH  051%=      5-min Rain = 0
KPG1 190709Z 00005KT 14/04 A2998 RMK A01 T01350036  RH  051%=      5-min Rain = 0
KPG1 190710Z 00005KT 14/04 A2998 RMK A01 T01350035  RH  051%=      5-min Rain = 0
KPG1 190711Z 02004KT 13/03 A2998 RMK A01 T01340034  RH  051%=      5-min Rain = 0
KPG1 190712Z 05003KT 13/03 A2999 RMK A01 T01310032  RH  051%=      5-min Rain = 0
KPG1 190713Z 05003KT 13/03 A2999 RMK A01 T01270032  RH  052%=      5-min Rain = 0
KPG1 190714Z 05003KT 13/03 A2999 RMK A01 T01250033  RH  053%=      5-min Rain = 0
KPG1 190715Z 06002KT 13/03 A2999 RMK A01 T01270034  RH  053%=      5-min Rain = 0
KPG1 190716Z 06002KT 13/04 A2999 RMK A01 T01290035  RH  053%=      5-min Rain = 0
KPG1 190717Z 06003KT 13/04 A2999 RMK A01 T01310036  RH  052%=      5-min Rain = 0
KPG1 190718Z 06003KT 13/04 A2999 RMK A01 T01330036  RH  052%=      5-min Rain = 0
KPG1 190719Z 05003KT 14/04 A2999 RMK A01 T01350037  RH  051%=      5-min Rain = 0
KPG1 190720Z 03002KT 14/04 A2999 RMK A01 T01370037  RH  051%=      5-min Rain = 0
KPG1 190721Z 04002KT 14/04 A2999 RMK A01 T01360036  RH  051%=      5-min Rain = 0
KPG1 190722Z 04002KT 14/04 A2999 RMK A01 T01360036  RH  051%=      5-min Rain = 0
KPG1 190723Z 07003KT 14/04 A2999 RMK A01 T01360036  RH  051%=      5-min Rain = 0
KPG1 190724Z 08003KT 14/04 A2999 RMK A01 T01360036  RH  051%=      5-min Rain = 0
KPG1 190725Z 10003KT 13/03 A2999 RMK A01 T01330034  RH  051%=      5-min Rain = 0
KPG1 190726Z 12003KT 13/03 A2999 RMK A01 T01300033  RH  052%=      5-min Rain = 0
KPG1 190727Z 13002KT 13/03 A2999 RMK A01 T01290034  RH  052%=      5-min Rain = 0
KPG1 190728Z 14002KT 13/03 A2999 RMK A01 T01320033  RH  051%=      5-min Rain = 0
KPG1 190729Z 12002KT 13/03 A2999 RMK A01 T01330033  RH  051%=      5-min Rain = 0
KPG1 190730Z 12002KT 13/03 A2999 RMK A01 T01340032  RH  050%=      5-min Rain = 0
KPG1 190731Z 11002KT 13/03 A2999 RMK A01 T01340032  RH  050%=      5-min Rain = 0
KPG1 190732Z 11001KT 13/03 A2999 RMK A01 T01340033  RH  050%=      5-min Rain = 0
KPG1 190733Z 13001KT 13/03 A2999 RMK A01 T01330033  RH  051%=      5-min Rain = 0
KPG1 190734Z 14001KT 13/03 A2999 RMK A01 T01310032  RH  051%=      5-min Rain = 0
KPG1 190735Z 14001KT 13/03 A2999 RMK A01 T01290031  RH  051%=      5-min Rain = 0
KPG1 190736Z 16002KT 13/03 A2999 RMK A01 T01290032  RH  052%=      5-min Rain = 0
KPG1 190737Z 15001KT 13/03 A2999 RMK A01 T01290033  RH  052%=      5-min Rain = 0
KPG1 190738Z 00000KT 13/03 A2999 RMK A01 T01300034  RH  052%=      5-min Rain = 0
KPG1 190739Z 02000KT 13/03 A2999 RMK A01 T01300033  RH  052%=      5-min Rain = 0
KPG1 190740Z 02000KT 13/03 A2999 RMK A01 T01310033  RH  051%=      5-min Rain = 0
KPG1 190741Z 00000KT 13/03 A2999 RMK A01 T01320033  RH  051%=      5-min Rain = 0
KPG1 190742Z 02000KT 13/03 A2999 RMK A01 T01330033  RH  051%=      5-min Rain = 0
KPG1 190743Z 02001KT 14/04 A2999 RMK A01 T01350035  RH  051%=      5-min Rain = 0
KPG1 190744Z 03002KT 13/03 A2999 RMK A01 T01320031  RH  051%=      5-min Rain = 0
KPG1 190745Z 03002KT 12/03 A2999 RMK A01 T01230028  RH  052%=      5-min Rain = 0
KPG1 190746Z 02002KT 12/03 A2999 RMK A01 T01170028  RH  055%=      5-min Rain = 0
KPG1 190747Z 01002KT 11/03 A2999 RMK A01 T01140030  RH  056%=      5-min Rain = 0
KPG1 190748Z 01002KT 11/03 A2999 RMK A01 T01140032  RH  057%=      5-min Rain = 0
KPG1 190749Z 01002KT 11/03 A2999 RMK A01 T01140032  RH  057%=      5-min Rain = 0
KPG1 190750Z 00002KT 12/03 A2999 RMK A01 T01150033  RH  057%=      5-min Rain = 0
KPG1 190751Z 35001KT 12/03 A2999 RMK A01 T01170033  RH  056%=      5-min Rain = 0
KPG1 190752Z 33001KT 12/03 A2999 RMK A01 T01150031  RH  056%=      5-min Rain = 0
KPG1 190753Z 34002KT 11/03 A2999 RMK A01 T01120031  RH  057%=      5-min Rain = 0
KPG1 190754Z 35002KT 11/03 A2999 RMK A01 T01110032  RH  058%=      5-min Rain = 0
KPG1 190755Z 35001KT 11/03 A2999 RMK A01 T01130033  RH  058%=      5-min Rain = 0
KPG1 190756Z 03001KT 11/03 A2999 RMK A01 T01120031  RH  058%=      5-min Rain = 0
KPG1 190757Z 03002KT 11/03 A2999 RMK A01 T01100031  RH  058%=      5-min Rain = 0
KPG1 190758Z 04002KT 11/03 A2999 RMK A01 T01100032  RH  059%=      5-min Rain = 0
KPG1 190759Z 05002KT 11/03 A2999 RMK A01 T01090032  RH  059%=      5-min Rain = 0
KPG1 190800Z 04003KT 11/03 A2999 RMK A01 T01100032  RH  059%=      5-min Rain = 0
KPG1 190801Z 04004KT 11/03 A2999 RMK A01 T01100033  RH  059%=      5-min Rain = 0
KPG1 190802Z 03004KT 11/03 A2999 RMK A01 T01090033  RH  059%=      5-min Rain = 0
KPG1 190803Z 04004KT 11/03 A2999 RMK A01 T01090033  RH  059%=      5-min Rain = 0
KPG1 190804Z 07002KT 11/03 A2999 RMK A01 T01090033  RH  059%=      5-min Rain = 0
KPG1 190805Z 16002KT 11/03 A2999 RMK A01 T01090032  RH  059%=      5-min Rain = 0
KPG1 190806Z 17001KT 11/03 A2999 RMK A01 T01080030  RH  058%=      5-min Rain = 0
KPG1 190807Z 19001KT 11/03 A2999 RMK A01 T01080029  RH  058%=      5-min Rain = 0
KPG1 190808Z 19003KT 11/03 A2999 RMK A01 T01070028  RH  058%=      5-min Rain = 0
KPG1 190809Z 20003KT 11/03 A2999 RMK A01 T01060028  RH  059%=      5-min Rain = 0
KPG1 190810Z 21002KT 11/03 A2999 RMK A01 T01050029  RH  059%=      5-min Rain = 0
KPG1 190811Z 21002KT 11/03 A2999 RMK A01 T01050029  RH  059%=      5-min Rain = 0
KPG1 190812Z 22002KT 11/03 A2999 RMK A01 T01050029  RH  059%=      5-min Rain = 0
KPG1 190813Z 22002KT 11/03 A2999 RMK A01 T01050029  RH  060%=      5-min Rain = 0
KPG1 190814Z 23002KT 11/03 A2999 RMK A01 T01050030  RH  060%=      5-min Rain = 0
KPG1 190815Z 25002KT 10/03 A2999 RMK A01 T01040030  RH  060%=      5-min Rain = 0
KPG1 190816Z 27003KT 10/03 A2999 RMK A01 T01030029  RH  060%=      5-min Rain = 0
KPG1 190817Z 25002KT 10/03 A2999 RMK A01 T01020029  RH  060%=      5-min Rain = 0
KPG1 190818Z 25001KT 10/03 A2999 RMK A01 T01020030  RH  061%=      5-min Rain = 0
KPG1 190819Z 27001KT 10/03 A2999 RMK A01 T01040031  RH  061%=      5-min Rain = 0
KPG1 190820Z 27002KT 11/03 A2999 RMK A01 T01050032  RH  060%=      5-min Rain = 0
KPG1 190821Z 28001KT 11/03 A2999 RMK A01 T01070032  RH  060%=      5-min Rain = 0
KPG1 190822Z 33001KT 11/03 A2999 RMK A01 T01070030  RH  059%=      5-min Rain = 0
KPG1 190823Z 01002KT 10/03 A2999 RMK A01 T01040029  RH  059%=      5-min Rain = 0
KPG1 190824Z 36002KT 10/03 A2999 RMK A01 T01040030  RH  060%=      5-min Rain = 0
KPG1 190825Z 34002KT 10/03 A2999 RMK A01 T01030031  RH  061%=      5-min Rain = 0
KPG1 190826Z 35002KT 10/03 A2999 RMK A01 T01030030  RH  061%=      5-min Rain = 0
KPG1 190827Z 02001KT 10/03 A2999 RMK A01 T01010028  RH  060%=      5-min Rain = 0
KPG1 190828Z 34000KT 10/03 A2999 RMK A01 T00980027  RH  061%=      5-min Rain = 0
KPG1 190829Z 34000KT 10/03 A2999 RMK A01 T00990028  RH  062%=      5-min Rain = 0
KPG1 190830Z 02001KT 10/03 A2999 RMK A01 T00990028  RH  061%=      5-min Rain = 0
KPG1 190831Z 03001KT 10/03 A2999 RMK A01 T00970026  RH  061%=      5-min Rain = 0
KPG1 190832Z 03002KT 09/03 A2999 RMK A01 T00940025  RH  062%=      5-min Rain = 0
KPG1 190833Z 02002KT 09/03 A2999 RMK A01 T00930026  RH  063%=      5-min Rain = 0
KPG1 190834Z 03003KT 09/03 A2999 RMK A01 T00920026  RH  063%=      5-min Rain = 0
KPG1 190835Z 04003KT 09/03 A2999 RMK A01 T00920027  RH  064%=      5-min Rain = 0
KPG1 190836Z 04002KT 09/03 A2999 RMK A01 T00920028  RH  064%=      5-min Rain = 0
KPG1 190837Z 04002KT 09/03 A2999 RMK A01 T00940030  RH  064%=      5-min Rain = 0
KPG1 190838Z 03002KT 10/03 A2999 RMK A01 T00960032  RH  064%=      5-min Rain = 0
KPG1 190839Z 03002KT 10/03 A2999 RMK A01 T00990032  RH  063%=      5-min Rain = 0
KPG1 190840Z 04002KT 10/03 A2999 RMK A01 T01020033  RH  062%=      5-min Rain = 0
KPG1 190841Z 05003KT 10/03 A2999 RMK A01 T01040033  RH  061%=      5-min Rain = 0
KPG1 190842Z 04003KT 11/03 A2999 RMK A01 T01050032  RH  061%=      5-min Rain = 0
KPG1 190843Z 03003KT 10/03 A2999 RMK A01 T01040031  RH  061%=      5-min Rain = 0
KPG1 190844Z 02003KT 10/03 A2999 RMK A01 T01040032  RH  061%=      5-min Rain = 0
KPG1 190845Z 02002KT 11/03 A2999 RMK A01 T01050033  RH  061%=      5-min Rain = 0
KPG1 190851Z 05002KT 10/02 A2999 RMK A01 T00980022  RH  059%=      5-min Rain = 0
KPG1 190852Z 06003KT 09/02 A2999 RMK A01 T00930023  RH  062%=      5-min Rain = 0
KPG1 190853Z 07003KT 09/03 A2999 RMK A01 T00900025  RH  064%=      5-min Rain = 0
KPG1 190854Z 09002KT 09/03 A2999 RMK A01 T00890027  RH  065%=      5-min Rain = 0
KPG1 190855Z 09001KT 09/03 A2999 RMK A01 T00900029  RH  066%=      5-min Rain = 0
KPG1 190856Z 06001KT 09/03 A2999 RMK A01 T00910031  RH  066%=      5-min Rain = 0
KPG1 190857Z 06000KT 09/03 A2999 RMK A01 T00930031  RH  065%=      5-min Rain = 0
KPG1 190858Z 00000KT 10/03 A2999 RMK A01 T00950033  RH  065%=      5-min Rain = 0
KPG1 190859Z 00000KT 10/03 A2999 RMK A01 T00980034  RH  064%=      5-min Rain = 0
KPG1 190900Z 00000KT 10/03 A2999 RMK A01 T01000034  RH  063%=      5-min Rain = 0
KPG1 190901Z 35000KT 10/04 A2999 RMK A01 T01040036  RH  063%=      5-min Rain = 0
KPG1 190902Z 35001KT 11/04 A2999 RMK A01 T01070036  RH  061%=      5-min Rain = 0
KPG1 190903Z 35001KT 11/04 A2999 RMK A01 T01090035  RH  060%=      5-min Rain = 0
KPG1 190904Z 35000KT 11/03 A2999 RMK A01 T01080034  RH  060%=      5-min Rain = 0
KPG1 190905Z 06001KT 11/03 A2999 RMK A01 T01070033  RH  060%=      5-min Rain = 0
KPG1 190906Z 05002KT 10/03 A2999 RMK A01 T01040030  RH  060%=      5-min Rain = 0
KPG1 190907Z 04002KT 10/03 A2999 RMK A01 T01000029  RH  061%=      5-min Rain = 0
KPG1 190908Z 04002KT 10/03 A2999 RMK A01 T00990031  RH  062%=      5-min Rain = 0
KPG1 190909Z 05001KT 10/03 A2999 RMK A01 T00990031  RH  063%=      5-min Rain = 0
KPG1 190910Z 05001KT 10/03 A2999 RMK A01 T00990032  RH  063%=      5-min Rain = 0
KPG1 190911Z 05001KT 10/03 A2999 RMK A01 T00990033  RH  063%=      5-min Rain = 0
KPG1 190912Z 05001KT 10/03 A2999 RMK A01 T01010034  RH  063%=      5-min Rain = 0
KPG1 190913Z 05000KT 10/03 A2999 RMK A01 T01020034  RH  063%=      5-min Rain = 0
KPG1 190914Z 31000KT 10/04 A2998 RMK A01 T01040035  RH  062%=      5-min Rain = 0
KPG1 190915Z 25001KT 11/03 A2998 RMK A01 T01060033  RH  061%=      5-min Rain = 0
KPG1 190916Z 23002KT 11/03 A2998 RMK A01 T01060032  RH  060%=      5-min Rain = 0
KPG1 190917Z 23002KT 10/03 A2999 RMK A01 T01040030  RH  060%=      5-min Rain = 0
KPG1 190918Z 22003KT 10/03 A2999 RMK A01 T01020028  RH  060%=      5-min Rain = 0
KPG1 190919Z 22002KT 10/03 A2999 RMK A01 T00990027  RH  061%=      5-min Rain = 0
KPG1 190920Z 22002KT 10/03 A2999 RMK A01 T00970026  RH  061%=      5-min Rain = 0
KPG1 190921Z 22002KT 10/03 A2999 RMK A01 T00960026  RH  062%=      5-min Rain = 0
KPG1 190922Z 22001KT 09/03 A2999 RMK A01 T00940025  RH  062%=      5-min Rain = 0
KPG1 190923Z 22001KT 09/03 A2999 RMK A01 T00940025  RH  062%=      5-min Rain = 0
KPG1 190924Z 22000KT 09/03 A2999 RMK A01 T00930025  RH  062%=      5-min Rain = 0
KPG1 190925Z 00000KT 09/03 A2999 RMK A01 T00930025  RH  062%=      5-min Rain = 0
KPG1 190926Z 00000KT 09/03 A2999 RMK A01 T00930025  RH  063%=      5-min Rain = 0
KPG1 190927Z 33000KT 09/03 A2999 RMK A01 T00930025  RH  063%=      5-min Rain = 0
KPG1 190928Z 35001KT 09/03 A2999 RMK A01 T00920025  RH  063%=      5-min Rain = 0
KPG1 190929Z 01002KT 09/03 A2999 RMK A01 T00930026  RH  063%=      5-min Rain = 0
KPG1 190930Z 02003KT 09/03 A2998 RMK A01 T00930028  RH  064%=      5-min Rain = 0
KPG1 190931Z 03002KT 09/03 A2998 RMK A01 T00900025  RH  064%=      5-min Rain = 0
KPG1 190932Z 03002KT 09/02 A2998 RMK A01 T00850022  RH  064%=      5-min Rain = 0
KPG1 190933Z 05002KT 08/02 A2998 RMK A01 T00830024  RH  066%=      5-min Rain = 0
KPG1 190934Z 07002KT 08/02 A2998 RMK A01 T00830024  RH  066%=      5-min Rain = 0
KPG1 190935Z 08002KT 08/02 A2999 RMK A01 T00800022  RH  067%=      5-min Rain = 0
KPG1 190936Z 09002KT 08/02 A2999 RMK A01 T00780022  RH  068%=      5-min Rain = 0
KPG1 190937Z 09001KT 08/02 A2999 RMK A01 T00770023  RH  069%=      5-min Rain = 0
KPG1 190938Z 13001KT 08/02 A2999 RMK A01 T00760024  RH  070%=      5-min Rain = 0
KPG1 190939Z 20000KT 08/03 A2999 RMK A01 T00770026  RH  070%=      5-min Rain = 0
KPG1 190940Z 21001KT 08/03 A2999 RMK A01 T00790027  RH  070%=      5-min Rain = 0
KPG1 190941Z 20001KT 08/03 A2999 RMK A01 T00800028  RH  070%=      5-min Rain = 0
KPG1 190942Z 18002KT 08/03 A2999 RMK A01 T00830029  RH  069%=      5-min Rain = 0
KPG1 190943Z 18002KT 09/03 A2999 RMK A01 T00850029  RH  068%=      5-min Rain = 0
KPG1 190944Z 19002KT 09/03 A2999 RMK A01 T00870029  RH  067%=      5-min Rain = 0
KPG1 190945Z 20003KT 09/03 A2999 RMK A01 T00880028  RH  066%=      5-min Rain = 0
KPG1 190946Z 22003KT 09/03 A2999 RMK A01 T00900027  RH  065%=      5-min Rain = 0
KPG1 190947Z 23003KT 09/03 A2999 RMK A01 T00900027  RH  064%=      5-min Rain = 0
KPG1 190948Z 24003KT 09/03 A2999 RMK A01 T00910027  RH  064%=      5-min Rain = 0
KPG1 190949Z 26003KT 09/03 A2999 RMK A01 T00910026  RH  064%=      5-min Rain = 0
KPG1 190950Z 26003KT 09/03 A2999 RMK A01 T00910026  RH  064%=      5-min Rain = 0
KPG1 190951Z 26003KT 09/03 A2999 RMK A01 T00930027  RH  063%=      5-min Rain = 0
KPG1 190952Z 26002KT 10/03 A2999 RMK A01 T00950027  RH  063%=      5-min Rain = 0
KPG1 190953Z 26003KT 10/03 A2999 RMK A01 T00970028  RH  062%=      5-min Rain = 0
KPG1 190954Z 29003KT 10/03 A2999 RMK A01 T00990028  RH  062%=      5-min Rain = 0
KPG1 190955Z 28002KT 10/03 A2999 RMK A01 T01000028  RH  061%=      5-min Rain = 0
KPG1 190956Z 28001KT 10/03 A2999 RMK A01 T00970025  RH  061%=      5-min Rain = 0
KPG1 190957Z 05000KT 09/02 A2999 RMK A01 T00940024  RH  062%=      5-min Rain = 0
KPG1 190958Z 04001KT 09/02 A2999 RMK A01 T00880021  RH  063%=      5-min Rain = 0
KPG1 190959Z 03002KT 08/02 A2999 RMK A01 T00830020  RH  065%=      5-min Rain = 0
KPG1 191000Z 03003KT 08/02 A2999 RMK A01 T00800021  RH  067%=      5-min Rain = 0
KPG1 191001Z 03003KT 08/02 A2999 RMK A01 T00780022  RH  068%=      5-min Rain = 0
KPG1 191002Z 01002KT 08/02 A2999 RMK A01 T00760022  RH  069%=      5-min Rain = 0
KPG1 191003Z 01002KT 08/02 A2998 RMK A01 T00770024  RH  069%=      5-min Rain = 0
KPG1 191004Z 04002KT 08/03 A2998 RMK A01 T00790025  RH  069%=      5-min Rain = 0
KPG1 191005Z 04002KT 08/03 A2998 RMK A01 T00790025  RH  069%=      5-min Rain = 0
KPG1 191006Z 05001KT 08/03 A2998 RMK A01 T00800025  RH  068%=      5-min Rain = 0
KPG1 191007Z 03001KT 08/03 A2998 RMK A01 T00800025  RH  068%=      5-min Rain = 0
KPG1 191008Z 03001KT 08/03 A2998 RMK A01 T00790025  RH  068%=      5-min Rain = 0
KPG1 191009Z 06001KT 08/03 A2998 RMK A01 T00790025  RH  068%=      5-min Rain = 0
KPG1 191010Z 05000KT 08/03 A2998 RMK A01 T00790025  RH  068%=      5-min Rain = 0
KPG1 191011Z 04000KT 08/02 A2998 RMK A01 T00790024  RH  068%=      5-min Rain = 0
KPG1 191012Z 02001KT 08/02 A2998 RMK A01 T00780024  RH  069%=      5-min Rain = 0
KPG1 191013Z 02001KT 08/02 A2999 RMK A01 T00770024  RH  069%=      5-min Rain = 0
KPG1 191014Z 02000KT 08/02 A2999 RMK A01 T00780024  RH  069%=      5-min Rain = 0
KPG1 191015Z 00000KT 08/02 A2999 RMK A01 T00780024  RH  069%=      5-min Rain = 0
KPG1 191016Z 26000KT 08/03 A2999 RMK A01 T00790026  RH  069%=      5-min Rain = 0
KPG1 191017Z 27001KT 08/03 A2999 RMK A01 T00820027  RH  068%=      5-min Rain = 0
KPG1 191018Z 28000KT 09/03 A2999 RMK A01 T00850028  RH  067%=      5-min Rain = 0
KPG1 191019Z 31001KT 09/03 A2999 RMK A01 T00880029  RH  066%=      5-min Rain = 0
KPG1 191020Z 31001KT 09/03 A2998 RMK A01 T00900028  RH  065%=      5-min Rain = 0
KPG1 191021Z 31001KT 09/03 A2998 RMK A01 T00920028  RH  064%=      5-min Rain = 0
KPG1 191022Z 29001KT 09/03 A2998 RMK A01 T00930029  RH  064%=      5-min Rain = 0
KPG1 191023Z 24000KT 09/03 A2998 RMK A01 T00930029  RH  064%=      5-min Rain = 0
KPG1 191024Z 23001KT 10/03 A2998 RMK A01 T00950030  RH  064%=      5-min Rain = 0
KPG1 191025Z 23002KT 10/03 A2998 RMK A01 T00960030  RH  063%=      5-min Rain = 0
KPG1 191026Z 22001KT 10/03 A2998 RMK A01 T00970029  RH  063%=      5-min Rain = 0
KPG1 191027Z 22002KT 10/03 A2999 RMK A01 T00950026  RH  062%=      5-min Rain = 0
KPG1 191028Z 21002KT 09/02 A2999 RMK A01 T00910024  RH  063%=      5-min Rain = 0
KPG1 191029Z 17002KT 09/02 A2999 RMK A01 T00870023  RH  064%=      5-min Rain = 0
KPG1 191030Z 17001KT 08/02 A2999 RMK A01 T00840024  RH  065%=      5-min Rain = 0
KPG1 191031Z 16000KT 08/02 A2999 RMK A01 T00820023  RH  066%=      5-min Rain = 0
KPG1 191032Z 03000KT 08/02 A2999 RMK A01 T00790022  RH  067%=      5-min Rain = 0
KPG1 191033Z 03002KT 08/02 A2999 RMK A01 T00760021  RH  068%=      5-min Rain = 0
KPG1 191034Z 04001KT 08/02 A2999 RMK A01 T00750022  RH  069%=      5-min Rain = 0
KPG1 191035Z 04001KT 07/02 A2999 RMK A01 T00740024  RH  070%=      5-min Rain = 0
KPG1 191036Z 04001KT 08/03 A2999 RMK A01 T00770028  RH  071%=      5-min Rain = 0
KPG1 191037Z 05000KT 08/03 A2999 RMK A01 T00810029  RH  070%=      5-min Rain = 0
KPG1 191038Z 00000KT 08/03 A2999 RMK A01 T00830030  RH  069%=      5-min Rain = 0
KPG1 191039Z 04000KT 09/03 A2999 RMK A01 T00850029  RH  068%=      5-min Rain = 0
KPG1 191040Z 26001KT 09/03 A2999 RMK A01 T00870029  RH  067%=      5-min Rain = 0
KPG1 191041Z 24001KT 09/03 A2999 RMK A01 T00880029  RH  066%=      5-min Rain = 0
KPG1 191042Z 22001KT 09/03 A2999 RMK A01 T00890026  RH  065%=      5-min Rain = 0
KPG1 191043Z 15001KT 09/03 A2999 RMK A01 T00870025  RH  065%=      5-min Rain = 0
KPG1 191044Z 13001KT 08/02 A2999 RMK A01 T00830023  RH  066%=      5-min Rain = 0
KPG1 191045Z 14001KT 08/02 A2999 RMK A01 T00800023  RH  067%=      5-min Rain = 0
KPG1 191046Z 14001KT 08/02 A2999 RMK A01 T00780022  RH  068%=      5-min Rain = 0
KPG1 191047Z 14000KT 08/02 A2999 RMK A01 T00760022  RH  068%=      5-min Rain = 0
KPG1 191048Z 00000KT 08/02 A2999 RMK A01 T00750022  RH  069%=      5-min Rain = 0
KPG1 191049Z 00000KT 08/02 A2999 RMK A01 T00760023  RH  069%=      5-min Rain = 0
KPG1 191050Z 00000KT 08/02 A2999 RMK A01 T00770024  RH  069%=      5-min Rain = 0
KPG1 191051Z 00000KT 08/03 A2999 RMK A01 T00790025  RH  069%=      5-min Rain = 0
KPG1 191052Z 00000KT 08/03 A2999 RMK A01 T00800025  RH  068%=      5-min Rain = 0
KPG1 191053Z 00000KT 08/02 A2999 RMK A01 T00800024  RH  068%=      5-min Rain = 0
KPG1 191054Z 25000KT 08/02 A2999 RMK A01 T00810024  RH  067%=      5-min Rain = 0
KPG1 191055Z 26001KT 08/02 A2999 RMK A01 T00820024  RH  067%=      5-min Rain = 0
KPG1 191056Z 25002KT 08/02 A2999 RMK A01 T00820024  RH  067%=      5-min Rain = 0
KPG1 191057Z 24002KT 08/02 A2999 RMK A01 T00820024  RH  067%=      5-min Rain = 0
KPG1 191058Z 24002KT 08/02 A2999 RMK A01 T00820024  RH  067%=      5-min Rain = 0
KPG1 191059Z 25002KT 08/02 A2999 RMK A01 T00820023  RH  066%=      5-min Rain = 0
KPG1 191100Z 25002KT 08/02 A2999 RMK A01 T00830023  RH  066%=      5-min Rain = 0
KPG1 191101Z 25002KT 08/02 A2999 RMK A01 T00830022  RH  066%=      5-min Rain = 0
KPG1 191102Z 25002KT 08/02 A2999 RMK A01 T00830021  RH  065%=      5-min Rain = 0
KPG1 191103Z 25001KT 08/02 A2999 RMK A01 T00840021  RH  065%=      5-min Rain = 0
KPG1 191104Z 25001KT 08/02 A2999 RMK A01 T00840020  RH  064%=      5-min Rain = 0
KPG1 191105Z 26001KT 08/02 A2999 RMK A01 T00840020  RH  064%=      5-min Rain = 0
KPG1 191106Z 27001KT 08/02 A2999 RMK A01 T00840020  RH  064%=      5-min Rain = 0
KPG1 191107Z 28000KT 08/02 A2999 RMK A01 T00820019  RH  064%=      5-min Rain = 0
KPG1 191108Z 29000KT 08/02 A2999 RMK A01 T00790019  RH  065%=      5-min Rain = 0
KPG1 191109Z 00000KT 08/02 A2999 RMK A01 T00780020  RH  067%=      5-min Rain = 0
KPG1 191110Z 33000KT 08/02 A2999 RMK A01 T00770020  RH  067%=      5-min Rain = 0
KPG1 191111Z 34000KT 08/02 A2999 RMK A01 T00750020  RH  068%=      5-min Rain = 0
KPG1 191112Z 01001KT 07/02 A2999 RMK A01 T00730020  RH  069%=      5-min Rain = 0
KPG1 191113Z 03002KT 07/02 A2999 RMK A01 T00710020  RH  070%=      5-min Rain = 0
KPG1 191114Z 02002KT 07/02 A2999 RMK A01 T00690020  RH  071%=      5-min Rain = 0
KPG1 191115Z 02002KT 07/02 A2999 RMK A01 T00690021  RH  072%=      5-min Rain = 0
KPG1 191116Z 00002KT 07/02 A2999 RMK A01 T00690022  RH  072%=      5-min Rain = 0
KPG1 191117Z 03001KT 07/02 A2999 RMK A01 T00700023  RH  072%=      5-min Rain = 0
KPG1 191118Z 04002KT 07/02 A2999 RMK A01 T00710023  RH  072%=      5-min Rain = 0
KPG1 191119Z 04001KT 07/02 A2999 RMK A01 T00710023  RH  071%=      5-min Rain = 0
KPG1 191120Z 04001KT 07/02 A2999 RMK A01 T00700022  RH  071%=      5-min Rain = 0
KPG1 191121Z 04000KT 07/02 A2999 RMK A01 T00710023  RH  072%=      5-min Rain = 0
KPG1 191122Z 00000KT 07/02 A2999 RMK A01 T00710023  RH  072%=      5-min Rain = 0
KPG1 191123Z 00000KT 07/02 A2999 RMK A01 T00710024  RH  072%=      5-min Rain = 0
KPG1 191124Z 33000KT 07/02 A2999 RMK A01 T00720024  RH  071%=      5-min Rain = 0
KPG1 191125Z 33001KT 07/02 A2999 RMK A01 T00740024  RH  071%=      5-min Rain = 0
KPG1 191126Z 33001KT 08/03 A2999 RMK A01 T00750025  RH  070%=      5-min Rain = 0
KPG1 191127Z 34001KT 08/02 A2999 RMK A01 T00770024  RH  069%=      5-min Rain = 0
KPG1 191128Z 33000KT 08/03 A2999 RMK A01 T00790025  RH  069%=      5-min Rain = 0
KPG1 191129Z 33000KT 08/02 A2999 RMK A01 T00790024  RH  068%=      5-min Rain = 0
KPG1 191130Z 33000KT 08/02 A2999 RMK A01 T00800024  RH  068%=      5-min Rain = 0
KPG1 191131Z 00000KT 08/02 A2999 RMK A01 T00810024  RH  067%=      5-min Rain = 0
KPG1 191132Z 00000KT 08/02 A2999 RMK A01 T00820024  RH  067%=      5-min Rain = 0
KPG1 191133Z 00000KT 08/02 A2998 RMK A01 T00820023  RH  066%=      5-min Rain = 0
KPG1 191134Z 33000KT 08/02 A2999 RMK A01 T00770017  RH  066%=      5-min Rain = 0
KPG1 191135Z 00000KT 07/02 A2999 RMK A01 T00720017  RH  068%=      5-min Rain = 0
KPG1 191136Z 00000KT 07/02 A2999 RMK A01 T00690018  RH  070%=      5-min Rain = 0
KPG1 191137Z 00000KT 07/02 A2999 RMK A01 T00680019  RH  071%=      5-min Rain = 0
KPG1 191138Z 00000KT 07/02 A2999 RMK A01 T00680020  RH  071%=      5-min Rain = 0
KPG1 191139Z 33000KT 07/02 A2999 RMK A01 T00680021  RH  072%=      5-min Rain = 0
KPG1 191140Z 33000KT 07/02 A2999 RMK A01 T00680021  RH  072%=      5-min Rain = 0
KPG1 191141Z 33000KT 07/02 A2999 RMK A01 T00670021  RH  072%=      5-min Rain = 0
KPG1 191142Z 33001KT 07/02 A2999 RMK A01 T00670021  RH  072%=      5-min Rain = 0
KPG1 191143Z 01000KT 07/02 A2999 RMK A01 T00680022  RH  072%=      5-min Rain = 0
KPG1 191144Z 00001KT 07/02 A2998 RMK A01 T00690021  RH  072%=      5-min Rain = 0
KPG1 191145Z 00001KT 07/02 A2998 RMK A01 T00690021  RH  071%=      5-min Rain = 0
KPG1 191146Z 01001KT 07/02 A2998 RMK A01 T00700021  RH  071%=      5-min Rain = 0
KPG1 191147Z 33001KT 07/02 A2998 RMK A01 T00730022  RH  070%=      5-min Rain = 0
KPG1 191148Z 27001KT 08/02 A2998 RMK A01 T00760022  RH  069%=      5-min Rain = 0
KPG1 191149Z 26001KT 08/02 A2998 RMK A01 T00780020  RH  067%=      5-min Rain = 0
KPG1 191150Z 24001KT 08/02 A2999 RMK A01 T00800019  RH  065%=      5-min Rain = 0
KPG1 191151Z 24001KT 08/02 A2999 RMK A01 T00770017  RH  066%=      5-min Rain = 0
KPG1 191152Z 23001KT 07/02 A2999 RMK A01 T00720017  RH  068%=      5-min Rain = 0
KPG1 191153Z 23000KT 07/02 A2999 RMK A01 T00680017  RH  070%=      5-min Rain = 0
KPG1 191154Z 00000KT 07/02 A2999 RMK A01 T00660017  RH  071%=      5-min Rain = 0
KPG1 191155Z 36000KT 06/02 A2999 RMK A01 T00640017  RH  072%=      5-min Rain = 0
KPG1 191156Z 00000KT 06/02 A2999 RMK A01 T00640019  RH  073%=      5-min Rain = 0
KPG1 191157Z 28000KT 06/02 A2999 RMK A01 T00640020  RH  073%=      5-min Rain = 0
KPG1 191158Z 27001KT 06/02 A2999 RMK A01 T00640020  RH  074%=      5-min Rain = 0
KPG1 191159Z 27001KT 07/02 A2999 RMK A01 T00650021  RH  074%=      5-min Rain = 0
KPG1 191200Z 26001KT 07/02 A2999 RMK A01 T00670023  RH  073%=      5-min Rain = 0
KPG1 191201Z 25002KT 07/02 A2999 RMK A01 T00700023  RH  072%=      5-min Rain = 0
KPG1 191202Z 26001KT 07/02 A2999 RMK A01 T00720023  RH  071%=      5-min Rain = 0
KPG1 191203Z 27000KT 07/02 A2999 RMK A01 T00740024  RH  070%=      5-min Rain = 0
KPG1 191204Z 24001KT 08/02 A2999 RMK A01 T00760023  RH  069%=      5-min Rain = 0
KPG1 191205Z 24001KT 08/02 A2999 RMK A01 T00780023  RH  068%=      5-min Rain = 0
KPG1 191206Z 24001KT 08/02 A2999 RMK A01 T00790023  RH  068%=      5-min Rain = 0
KPG1 191207Z 23001KT 08/02 A2999 RMK A01 T00790021  RH  067%=      5-min Rain = 0
KPG1 191208Z 22002KT 08/02 A2999 RMK A01 T00790019  RH  066%=      5-min Rain = 0
KPG1 191209Z 22002KT 08/02 A2999 RMK A01 T00790017  RH  065%=      5-min Rain = 0
KPG1 191210Z 21002KT 08/02 A2999 RMK A01 T00790016  RH  064%=      5-min Rain = 0
KPG1 191211Z 21002KT 08/02 A2999 RMK A01 T00790015  RH  064%=      5-min Rain = 0
KPG1 191212Z 21001KT 08/01 A2999 RMK A01 T00780014  RH  064%=      5-min Rain = 0
KPG1 191213Z 23001KT 08/01 A2999 RMK A01 T00760014  RH  065%=      5-min Rain = 0
KPG1 191214Z 24001KT 08/01 A2999 RMK A01 T00750014  RH  065%=      5-min Rain = 0
KPG1 191215Z 26001KT 07/01 A2999 RMK A01 T00740013  RH  065%=      5-min Rain = 0
KPG1 191216Z 27001KT 07/01 A2999 RMK A01 T00740013  RH  065%=      5-min Rain = 0
KPG1 191217Z 26001KT 08/01 A2999 RMK A01 T00750013  RH  065%=      5-min Rain = 0
KPG1 191218Z 26001KT 08/01 A2999 RMK A01 T00760012  RH  064%=      5-min Rain = 0
KPG1 191219Z 26001KT 08/01 A2999 RMK A01 T00770012  RH  063%=      5-min Rain = 0
KPG1 191220Z 25001KT 08/01 A2999 RMK A01 T00780012  RH  063%=      5-min Rain = 0
KPG1 191221Z 25000KT 08/01 A2999 RMK A01 T00780013  RH  063%=      5-min Rain = 0
KPG1 191222Z 24000KT 08/01 A2999 RMK A01 T00780013  RH  063%=      5-min Rain = 0
KPG1 191223Z 24000KT 08/01 A2999 RMK A01 T00750013  RH  065%=      5-min Rain = 0
KPG1 191224Z 24001KT 07/01 A2999 RMK A01 T00720013  RH  066%=      5-min Rain = 0
KPG1 191225Z 24001KT 07/01 A2999 RMK A01 T00690014  RH  068%=      5-min Rain = 0
KPG1 191226Z 24001KT 07/02 A2999 RMK A01 T00680015  RH  069%=      5-min Rain = 0
KPG1 191227Z 25001KT 07/02 A2999 RMK A01 T00680015  RH  069%=      5-min Rain = 0
KPG1 191228Z 25001KT 07/02 A2999 RMK A01 T00680015  RH  069%=      5-min Rain = 0
KPG1 191229Z 24001KT 07/02 A2999 RMK A01 T00680015  RH  069%=      5-min Rain = 0
KPG1 191230Z 24002KT 07/01 A2999 RMK A01 T00690014  RH  068%=      5-min Rain = 0
KPG1 191231Z 25001KT 07/01 A2999 RMK A01 T00690014  RH  068%=      5-min Rain = 0
KPG1 191232Z 25001KT 07/01 A2999 RMK A01 T00690014  RH  068%=      5-min Rain = 0
KPG1 191233Z 26001KT 07/01 A2999 RMK A01 T00690014  RH  068%=      5-min Rain = 0
KPG1 191234Z 25002KT 07/01 A2999 RMK A01 T00700014  RH  067%=      5-min Rain = 0
KPG1 191235Z 25002KT 07/01 A2999 RMK A01 T00700012  RH  066%=      5-min Rain = 0
KPG1 191236Z 25002KT 07/01 A2999 RMK A01 T00720012  RH  066%=      5-min Rain = 0
KPG1 191237Z 24002KT 07/01 A2999 RMK A01 T00720011  RH  065%=      5-min Rain = 0
KPG1 191238Z 25002KT 07/01 A2999 RMK A01 T00730011  RH  065%=      5-min Rain = 0
KPG1 191239Z 24003KT 07/01 A2999 RMK A01 T00730011  RH  065%=      5-min Rain = 0
KPG1 191240Z 24003KT 07/01 A2999 RMK A01 T00740011  RH  064%=      5-min Rain = 0
KPG1 191241Z 25003KT 08/01 A2999 RMK A01 T00750011  RH  064%=      5-min Rain = 0
KPG1 191242Z 25003KT 08/01 A2999 RMK A01 T00750011  RH  064%=      5-min Rain = 0
KPG1 191243Z 25003KT 08/01 A2999 RMK A01 T00760011  RH  063%=      5-min Rain = 0
KPG1 191244Z 25003KT 08/01 A2999 RMK A01 T00780012  RH  063%=      5-min Rain = 0
KPG1 191245Z 24003KT 08/01 A2999 RMK A01 T00790012  RH  062%=      5-min Rain = 0
KPG1 191246Z 24003KT 08/01 A2999 RMK A01 T00800012  RH  062%=      5-min Rain = 0
KPG1 191247Z 23003KT 08/01 A2999 RMK A01 T00800012  RH  062%=      5-min Rain = 0
KPG1 191248Z 24003KT 08/01 A30 RMK A01 T00800012  RH  062%=      5-min Rain = 0
KPG1 191249Z 24004KT 08/01 A30 RMK A01 T00800011  RH  062%=      5-min Rain = 0
KPG1 191250Z 23004KT 08/01 A30 RMK A01 T00790011  RH  062%=      5-min Rain = 0
KPG1 191251Z 23004KT 08/01 A30 RMK A01 T00780011  RH  062%=      5-min Rain = 0
KPG1 191252Z 22004KT 08/01 A30 RMK A01 T00770011  RH  063%=      5-min Rain = 0
KPG1 191253Z 23004KT 08/01 A30 RMK A01 T00770011  RH  063%=      5-min Rain = 0
KPG1 191254Z 23004KT 08/01 A30 RMK A01 T00770011  RH  063%=      5-min Rain = 0
KPG1 191255Z 22004KT 08/01 A30 RMK A01 T00760011  RH  063%=      5-min Rain = 0
KPG1 191256Z 23003KT 08/01 A30 RMK A01 T00760011  RH  063%=      5-min Rain = 0
KPG1 191257Z 23003KT 08/01 A30 RMK A01 T00760011  RH  063%=      5-min Rain = 0
KPG1 191258Z 22003KT 08/01 A30 RMK A01 T00760011  RH  063%=      5-min Rain = 0
KPG1 191259Z 23003KT 08/01 A30 RMK A01 T00750011  RH  064%=      5-min Rain = 0
KPG1 191300Z 23003KT 08/01 A30 RMK A01 T00750011  RH  064%=      5-min Rain = 0
KPG1 191301Z 24002KT 08/01 A30 RMK A01 T00760011  RH  063%=      5-min Rain = 0
KPG1 191302Z 25003KT 08/01 A30 RMK A01 T00770012  RH  063%=      5-min Rain = 0
KPG1 191303Z 25002KT 08/01 A30 RMK A01 T00780012  RH  063%=      5-min Rain = 0
KPG1 191304Z 24002KT 08/01 A30 RMK A01 T00790012  RH  063%=      5-min Rain = 0
KPG1 191305Z 25003KT 08/01 A30 RMK A01 T00790011  RH  062%=      5-min Rain = 0
KPG1 191306Z 25002KT 08/01 A30 RMK A01 T00790010  RH  062%=      5-min Rain = 0
KPG1 191307Z 23002KT 08/01 A30 RMK A01 T00770009  RH  062%=      5-min Rain = 0
KPG1 191308Z 24002KT 08/01 A30 RMK A01 T00750009  RH  063%=      5-min Rain = 0
KPG1 191309Z 24002KT 07/01 A30 RMK A01 T00720008  RH  064%=      5-min Rain = 0
KPG1 191310Z 23002KT 07/01 A30 RMK A01 T00700008  RH  065%=      5-min Rain = 0
KPG1 191311Z 25002KT 07/01 A30 RMK A01 T00670008  RH  066%=      5-min Rain = 0
KPG1 191312Z 24002KT 07/01 A30 RMK A01 T00650008  RH  067%=      5-min Rain = 0
KPG1 191313Z 26002KT 06/01 A30 RMK A01 T00640009  RH  068%=      5-min Rain = 0
KPG1 191314Z 26001KT 06/01 A30 RMK A01 T00630009  RH  068%=      5-min Rain = 0
KPG1 191315Z 26001KT 06/01 A30 RMK A01 T00630009  RH  068%=      5-min Rain = 0
KPG1 191316Z 26002KT 06/01 A30 RMK A01 T00630009  RH  069%=      5-min Rain = 0
KPG1 191317Z 24002KT 06/01 A30 RMK A01 T00630010  RH  069%=      5-min Rain = 0
KPG1 191318Z 24003KT 06/01 A30 RMK A01 T00630010  RH  069%=      5-min Rain = 0
KPG1 191319Z 24003KT 06/01 A30 RMK A01 T00630011  RH  069%=      5-min Rain = 0
KPG1 191320Z 24003KT 07/01 A30 RMK A01 T00650011  RH  069%=      5-min Rain = 0
KPG1 191321Z 24003KT 07/01 A30 RMK A01 T00670012  RH  068%=      5-min Rain = 0
KPG1 191322Z 24003KT 07/01 A30 RMK A01 T00680012  RH  067%=      5-min Rain = 0
KPG1 191323Z 23004KT 07/01 A30 RMK A01 T00700012  RH  067%=      5-min Rain = 0
KPG1 191324Z 23004KT 07/01 A30 RMK A01 T00700012  RH  066%=      5-min Rain = 0
KPG1 191325Z 23003KT 07/01 A30 RMK A01 T00710011  RH  066%=      5-min Rain = 0
KPG1 191326Z 23003KT 07/01 A30 RMK A01 T00710011  RH  066%=      5-min Rain = 0
KPG1 191327Z 23003KT 07/01 A30 RMK A01 T00720011  RH  065%=      5-min Rain = 0
KPG1 191328Z 22003KT 07/01 A30 RMK A01 T00720011  RH  065%=      5-min Rain = 0
KPG1 191329Z 23003KT 07/01 A30 RMK A01 T00720011  RH  065%=      5-min Rain = 0
KPG1 191330Z 23003KT 07/01 A30 RMK A01 T00720010  RH  065%=      5-min Rain = 0
KPG1 191331Z 23003KT 07/01 A30 RMK A01 T00720011  RH  065%=      5-min Rain = 0
KPG1 191332Z 22003KT 07/01 A30 RMK A01 T00710011  RH  065%=      5-min Rain = 0
KPG1 191333Z 23003KT 07/01 A30 RMK A01 T00700010  RH  066%=      5-min Rain = 0
KPG1 191334Z 23002KT 07/01 A30 RMK A01 T00690010  RH  066%=      5-min Rain = 0
KPG1 191335Z 23002KT 07/01 A30 RMK A01 T00680010  RH  066%=      5-min Rain = 0
KPG1 191336Z 24002KT 07/01 A30 RMK A01 T00680010  RH  067%=      5-min Rain = 0
KPG1 191337Z 24002KT 07/01 A30 RMK A01 T00680010  RH  067%=      5-min Rain = 0
KPG1 191338Z 22002KT 07/01 A30 RMK A01 T00700010  RH  066%=      5-min Rain = 0
KPG1 191339Z 23003KT 07/01 A30 RMK A01 T00710010  RH  065%=      5-min Rain = 0
KPG1 191340Z 22003KT 07/01 A30 RMK A01 T00720010  RH  065%=      5-min Rain = 0
KPG1 191341Z 21003KT 07/01 A3001 RMK A01 T00730010  RH  064%=      5-min Rain = 0
KPG1 191342Z 21003KT 07/01 A3001 RMK A01 T00730010  RH  064%=      5-min Rain = 0
KPG1 191343Z 22003KT 07/01 A3001 RMK A01 T00730010  RH  064%=      5-min Rain = 0
KPG1 191344Z 22003KT 07/01 A3001 RMK A01 T00730010  RH  064%=      5-min Rain = 0
KPG1 191345Z 21003KT 07/01 A3001 RMK A01 T00720010  RH  064%=      5-min Rain = 0
KPG1 191346Z 20003KT 07/01 A3001 RMK A01 T00720010  RH  065%=      5-min Rain = 0
KPG1 191347Z 20004KT 07/01 A3001 RMK A01 T00710010  RH  065%=      5-min Rain = 0
KPG1 191348Z 21004KT 07/01 A3001 RMK A01 T00700009  RH  065%=      5-min Rain = 0
KPG1 191349Z 22004KT 07/01 A3001 RMK A01 T00690009  RH  066%=      5-min Rain = 0
KPG1 191350Z 22005KT 07/01 A3001 RMK A01 T00670009  RH  067%=      5-min Rain = 0
KPG1 191351Z 23005KT 07/01 A3001 RMK A01 T00650009  RH  067%=      5-min Rain = 0
KPG1 191352Z 22004KT 07/01 A3001 RMK A01 T00650009  RH  068%=      5-min Rain = 0
KPG1 191353Z 23004KT 07/01 A3001 RMK A01 T00650009  RH  068%=      5-min Rain = 0
KPG1 191354Z 23004KT 07/01 A3001 RMK A01 T00660010  RH  067%=      5-min Rain = 0
KPG1 191355Z 23004KT 07/01 A3001 RMK A01 T00670010  RH  067%=      5-min Rain = 0
KPG1 191356Z 24003KT 07/01 A3001 RMK A01 T00700010  RH  066%=      5-min Rain = 0
KPG1 191357Z 22003KT 07/01 A3001 RMK A01 T00720010  RH  064%=      5-min Rain = 0
KPG1 191358Z 23003KT 08/01 A3001 RMK A01 T00750010  RH  064%=      5-min Rain = 0
KPG1 191359Z 22003KT 08/01 A3001 RMK A01 T00760010  RH  063%=      5-min Rain = 0
KPG1 191400Z 22003KT 08/01 A3001 RMK A01 T00770009  RH  062%=      5-min Rain = 0
KPG1 191401Z 23003KT 08/01 A3001 RMK A01 T00780009  RH  062%=      5-min Rain = 0
KPG1 191402Z 23002KT 08/01 A3001 RMK A01 T00790009  RH  061%=      5-min Rain = 0
KPG1 191403Z 23003KT 08/01 A3001 RMK A01 T00790008  RH  061%=      5-min Rain = 0
KPG1 191404Z 23003KT 08/01 A3001 RMK A01 T00800009  RH  061%=      5-min Rain = 0
KPG1 191405Z 22003KT 08/01 A3001 RMK A01 T00810009  RH  060%=      5-min Rain = 0
KPG1 191406Z 23003KT 08/01 A3001 RMK A01 T00810008  RH  060%=      5-min Rain = 0
KPG1 191407Z 23003KT 08/01 A3001 RMK A01 T00810009  RH  060%=      5-min Rain = 0
KPG1 191408Z 23004KT 08/01 A3001 RMK A01 T00800008  RH  060%=      5-min Rain = 0
KPG1 191409Z 23003KT 08/01 A3001 RMK A01 T00800009  RH  061%=      5-min Rain = 0
KPG1 191410Z 23004KT 08/01 A3001 RMK A01 T00800008  RH  061%=      5-min Rain = 0
KPG1 191411Z 23003KT 08/01 A3001 RMK A01 T00800008  RH  061%=      5-min Rain = 0
KPG1 191412Z 23003KT 08/01 A3001 RMK A01 T00800008  RH  060%=      5-min Rain = 0
KPG1 191413Z 23003KT 08/01 A3001 RMK A01 T00800008  RH  061%=      5-min Rain = 0
KPG1 191414Z 22003KT 08/01 A3002 RMK A01 T00800008  RH  061%=      5-min Rain = 0
KPG1 191415Z 22003KT 08/01 A3002 RMK A01 T00800008  RH  060%=      5-min Rain = 0
KPG1 191416Z 22003KT 08/01 A3002 RMK A01 T00800007  RH  060%=      5-min Rain = 0
KPG1 191417Z 21003KT 08/01 A3002 RMK A01 T00790008  RH  060%=      5-min Rain = 0
KPG1 191418Z 21003KT 08/01 A3002 RMK A01 T00790007  RH  061%=      5-min Rain = 0
KPG1 191419Z 21003KT 08/01 A3002 RMK A01 T00790007  RH  061%=      5-min Rain = 0
KPG1 191420Z 22004KT 08/01 A3002 RMK A01 T00790008  RH  061%=      5-min Rain = 0
KPG1 191421Z 22004KT 08/01 A3002 RMK A01 T00790008  RH  061%=      5-min Rain = 0
KPG1 191422Z 22004KT 08/01 A3002 RMK A01 T00790008  RH  061%=      5-min Rain = 0
KPG1 191423Z 21004KT 08/01 A3002 RMK A01 T00790008  RH  061%=      5-min Rain = 0
KPG1 191424Z 22004KT 08/01 A3002 RMK A01 T00790008  RH  061%=      5-min Rain = 0
KPG1 191425Z 22003KT 08/01 A3002 RMK A01 T00790008  RH  061%=      5-min Rain = 0
KPG1 191426Z 22003KT 08/01 A3002 RMK A01 T00790008  RH  061%=      5-min Rain = 0
KPG1 191427Z 22003KT 08/01 A3002 RMK A01 T00790008  RH  061%=      5-min Rain = 0
KPG1 191428Z 23003KT 08/01 A3002 RMK A01 T00790008  RH  061%=      5-min Rain = 0
KPG1 191429Z 22003KT 08/01 A3002 RMK A01 T00790008  RH  061%=      5-min Rain = 0
KPG1 191430Z 22003KT 08/01 A3002 RMK A01 T00790008  RH  061%=      5-min Rain = 0
KPG1 191431Z 22003KT 08/01 A3002 RMK A01 T00780008  RH  061%=      5-min Rain = 0
KPG1 191432Z 22004KT 08/01 A3002 RMK A01 T00780008  RH  061%=      5-min Rain = 0
KPG1 191433Z 22003KT 08/01 A3002 RMK A01 T00780008  RH  061%=      5-min Rain = 0
KPG1 191434Z 23003KT 08/01 A3002 RMK A01 T00780009  RH  061%=      5-min Rain = 0
KPG1 191435Z 22003KT 08/01 A3002 RMK A01 T00780009  RH  061%=      5-min Rain = 0
KPG1 191436Z 22004KT 08/01 A3002 RMK A01 T00790009  RH  061%=      5-min Rain = 0
KPG1 191437Z 22004KT 08/01 A3002 RMK A01 T00790009  RH  061%=      5-min Rain = 0
KPG1 191438Z 22003KT 08/01 A3002 RMK A01 T00800010  RH  061%=      5-min Rain = 0
KPG1 191439Z 22004KT 08/01 A3002 RMK A01 T00820009  RH  060%=      5-min Rain = 0
KPG1 191440Z 23004KT 08/01 A3002 RMK A01 T00820009  RH  060%=      5-min Rain = 0
KPG1 191441Z 22004KT 08/01 A3002 RMK A01 T00830009  RH  060%=      5-min Rain = 0
KPG1 191442Z 22003KT 08/01 A3002 RMK A01 T00830010  RH  060%=      5-min Rain = 0
KPG1 191443Z 21003KT 09/01 A3002 RMK A01 T00850011  RH  060%=      5-min Rain = 0
KPG1 191444Z 21004KT 09/01 A3002 RMK A01 T00870011  RH  059%=      5-min Rain = 0
KPG1 191445Z 20004KT 09/01 A3002 RMK A01 T00880011  RH  059%=      5-min Rain = 0
KPG1 191446Z 19004KT 09/01 A3002 RMK A01 T00880011  RH  058%=      5-min Rain = 0
KPG1 191447Z 19003KT 09/01 A3002 RMK A01 T00890011  RH  058%=      5-min Rain = 0
KPG1 191448Z 20003KT 09/01 A3002 RMK A01 T00890011  RH  058%=      5-min Rain = 0
KPG1 191449Z 19003KT 09/01 A3002 RMK A01 T00890011  RH  058%=      5-min Rain = 0
KPG1 191450Z 21003KT 09/01 A3002 RMK A01 T00900011  RH  058%=      5-min Rain = 0
KPG1 191451Z 21003KT 09/01 A3002 RMK A01 T00910012  RH  058%=      5-min Rain = 0
KPG1 191452Z 21004KT 09/01 A3002 RMK A01 T00910011  RH  057%=      5-min Rain = 0
KPG1 191453Z 21003KT 09/01 A3002 RMK A01 T00910011  RH  057%=      5-min Rain = 0
KPG1 191454Z 21003KT 09/01 A3003 RMK A01 T00920011  RH  057%=      5-min Rain = 0
KPG1 191455Z 20004KT 09/01 A3003 RMK A01 T00930012  RH  057%=      5-min Rain = 0
KPG1 191456Z 19003KT 09/01 A3003 RMK A01 T00930011  RH  057%=      5-min Rain = 0
KPG1 191457Z 22003KT 09/01 A3003 RMK A01 T00930011  RH  057%=      5-min Rain = 0
KPG1 191458Z 20003KT 09/01 A3003 RMK A01 T00940012  RH  056%=      5-min Rain = 0
KPG1 191459Z 21003KT 10/01 A3003 RMK A01 T00950010  RH  055%=      5-min Rain = 0
KPG1 191500Z 20003KT 10/01 A3003 RMK A01 T00960011  RH  056%=      5-min Rain = 0
KPG1 191501Z 22003KT 10/01 A3003 RMK A01 T00960011  RH  055%=      5-min Rain = 0
KPG1 191502Z 22003KT 10/01 A3003 RMK A01 T00970011  RH  055%=      5-min Rain = 0
KPG1 191503Z 21003KT 10/01 A3003 RMK A01 T00970011  RH  055%=      5-min Rain = 0
KPG1 191504Z 21003KT 10/01 A3003 RMK A01 T00980012  RH  055%=      5-min Rain = 0
KPG1 191505Z 21003KT 10/01 A3003 RMK A01 T00980012  RH  055%=      5-min Rain = 0
KPG1 191506Z 21003KT 10/01 A3003 RMK A01 T00990012  RH  055%=      5-min Rain = 0
KPG1 191507Z 20002KT 10/01 A3003 RMK A01 T00990012  RH  054%=      5-min Rain = 0
KPG1 191508Z 20002KT 10/01 A3003 RMK A01 T01000013  RH  054%=      5-min Rain = 0
KPG1 191509Z 20002KT 10/01 A3003 RMK A01 T01020013  RH  054%=      5-min Rain = 0
KPG1 191510Z 21002KT 10/01 A3003 RMK A01 T01040013  RH  053%=      5-min Rain = 0
KPG1 191511Z 20002KT 11/01 A3003 RMK A01 T01060013  RH  053%=      5-min Rain = 0
KPG1 191512Z 20001KT 11/01 A3003 RMK A01 T01070013  RH  052%=      5-min Rain = 0
KPG1 191513Z 19002KT 11/01 A3003 RMK A01 T01070012  RH  052%=      5-min Rain = 0
KPG1 191514Z 20001KT 11/01 A3003 RMK A01 T01090014  RH  052%=      5-min Rain = 0
KPG1 191515Z 19003KT 11/01 A3003 RMK A01 T01100014  RH  051%=      5-min Rain = 0
KPG1 191516Z 20003KT 11/02 A3003 RMK A01 T01130015  RH  051%=      5-min Rain = 0
KPG1 191517Z 21002KT 12/01 A3003 RMK A01 T01150014  RH  050%=      5-min Rain = 0
KPG1 191518Z 21003KT 12/01 A3003 RMK A01 T01150014  RH  050%=      5-min Rain = 0
KPG1 191519Z 21002KT 12/01 A3003 RMK A01 T01160014  RH  050%=      5-min Rain = 0
KPG1 191520Z 21002KT 12/01 A3003 RMK A01 T01160014  RH  050%=      5-min Rain = 0
KPG1 191521Z 20003KT 12/02 A3003 RMK A01 T01160015  RH  050%=      5-min Rain = 0
KPG1 191522Z 21002KT 12/02 A3003 RMK A01 T01180015  RH  049%=      5-min Rain = 0
KPG1 191523Z 18003KT 12/02 A3003 RMK A01 T01190016  RH  049%=      5-min Rain = 0
KPG1 191524Z 17003KT 12/02 A3003 RMK A01 T01230017  RH  048%=      5-min Rain = 0
KPG1 191525Z 18003KT 13/02 A3003 RMK A01 T01260017  RH  047%=      5-min Rain = 0
KPG1 191526Z 19003KT 13/02 A3003 RMK A01 T01290017  RH  047%=      5-min Rain = 0
KPG1 191527Z 18003KT 13/02 A3003 RMK A01 T01290016  RH  046%=      5-min Rain = 0
KPG1 191528Z 19003KT 13/02 A3003 RMK A01 T01290016  RH  046%=      5-min Rain = 0
KPG1 191529Z 19003KT 13/02 A3003 RMK A01 T01300016  RH  046%=      5-min Rain = 0
KPG1 191530Z 21003KT 13/02 A3003 RMK A01 T01310016  RH  046%=      5-min Rain = 0
KPG1 191531Z 20003KT 13/02 A3003 RMK A01 T01310016  RH  045%=      5-min Rain = 0
KPG1 191532Z 17003KT 13/02 A3003 RMK A01 T01310016  RH  045%=      5-min Rain = 0
KPG1 191533Z 17003KT 13/02 A3003 RMK A01 T01320016  RH  045%=      5-min Rain = 0
KPG1 191534Z 20003KT 13/02 A3003 RMK A01 T01340017  RH  045%=      5-min Rain = 0
KPG1 191535Z 19004KT 14/02 A3003 RMK A01 T01370018  RH  045%=      5-min Rain = 0
KPG1 191536Z 19003KT 14/02 A3003 RMK A01 T01380016  RH  044%=      5-min Rain = 0
KPG1 191537Z 18004KT 14/02 A3003 RMK A01 T01380017  RH  044%=      5-min Rain = 0
KPG1 191538Z 18003KT 14/02 A3003 RMK A01 T01400018  RH  044%=      5-min Rain = 0
KPG1 191539Z 19004KT 14/02 A3003 RMK A01 T01410017  RH  043%=      5-min Rain = 0
KPG1 191540Z 18004KT 14/02 A3003 RMK A01 T01410017  RH  043%=      5-min Rain = 0
KPG1 191541Z 19005KT 14/02 A3003 RMK A01 T01400017  RH  043%=      5-min Rain = 0
KPG1 191542Z 18004KT 14/02 A3003 RMK A01 T01390016  RH  043%=      5-min Rain = 0
KPG1 191543Z 18004KT 14/02 A3003 RMK A01 T01380016  RH  044%=      5-min Rain = 0
KPG1 191544Z 18004KT 14/02 A3003 RMK A01 T01390017  RH  043%=      5-min Rain = 0
KPG1 191545Z 18004KT 14/02 A3003 RMK A01 T01410018  RH  043%=      5-min Rain = 0
KPG1 191546Z 19005KT 14/02 A3003 RMK A01 T01420018  RH  043%=      5-min Rain = 0
KPG1 191547Z 19005KT 14/02 A3003 RMK A01 T01440017  RH  042%=      5-min Rain = 0
KPG1 191548Z 18005KT 14/02 A3003 RMK A01 T01440017  RH  042%=      5-min Rain = 0
KPG1 191549Z 18005KT 14/02 A3003 RMK A01 T01430016  RH  042%=      5-min Rain = 0
KPG1 191550Z 19005KT 14/02 A3003 RMK A01 T01440017  RH  042%=      5-min Rain = 0
KPG1 191551Z 20005KT 15/02 A3003 RMK A01 T01450017  RH  042%=      5-min Rain = 0
KPG1 191552Z 19005KT 15/02 A3003 RMK A01 T01450016  RH  042%=      5-min Rain = 0
KPG1 191553Z 18004KT 14/02 A3003 RMK A01 T01440016  RH  042%=      5-min Rain = 0
KPG1 191554Z 18005KT 15/02 A3003 RMK A01 T01470017  RH  041%=      5-min Rain = 0
KPG1 191555Z 19005KT 15/02 A3003 RMK A01 T01480016  RH  041%=      5-min Rain = 0
KPG1 191556Z 18005KT 15/02 A3003 RMK A01 T01490017  RH  041%=      5-min Rain = 0
KPG1 191557Z 17005KT 15/02 A3003 RMK A01 T01510017  RH  040%=      5-min Rain = 0
KPG1 191558Z 18004KT 15/02 A3003 RMK A01 T01510017  RH  040%=      5-min Rain = 0
KPG1 191559Z 18005KT 15/02 A3003 RMK A01 T01520017  RH  040%=      5-min Rain = 0
KPG1 191600Z 18005KT 15/02 A3003 RMK A01 T01510016  RH  040%=      5-min Rain = 0
KPG1 191601Z 19005KT 15/02 A3003 RMK A01 T01500016  RH  040%=      5-min Rain = 0
KPG1 191602Z 19004KT 15/02 A3003 RMK A01 T01520017  RH  040%=      5-min Rain = 0
KPG1 191603Z 19004KT 15/02 A3003 RMK A01 T01530016  RH  040%=      5-min Rain = 0
KPG1 191604Z 19005KT 15/02 A3003 RMK A01 T01520016  RH  040%=      5-min Rain = 0
KPG1 191605Z 20005KT 15/01 A3003 RMK A01 T01510014  RH  040%=      5-min Rain = 0
KPG1 191606Z 20005KT 15/01 A3003 RMK A01 T01490014  RH  040%=      5-min Rain = 0
KPG1 191607Z 20004KT 15/01 A3003 RMK A01 T01500014  RH  040%=      5-min Rain = 0
KPG1 191608Z 19003KT 15/01 A3003 RMK A01 T01500014  RH  040%=      5-min Rain = 0
KPG1 191609Z 20004KT 15/02 A3003 RMK A01 T01520015  RH  040%=      5-min Rain = 0
KPG1 191610Z 20004KT 15/02 A3003 RMK A01 T01530015  RH  039%=      5-min Rain = 0
KPG1 191611Z 19004KT 15/02 A3003 RMK A01 T01540015  RH  039%=      5-min Rain = 0
KPG1 191612Z 20004KT 15/01 A3003 RMK A01 T01530014  RH  039%=      5-min Rain = 0
KPG1 191613Z 21004KT 15/02 A3003 RMK A01 T01530015  RH  039%=      5-min Rain = 0
KPG1 191614Z 20004KT 15/02 A3003 RMK A01 T01540015  RH  039%=      5-min Rain = 0
KPG1 191615Z 18003KT 16/01 A3003 RMK A01 T01550014  RH  038%=      5-min Rain = 0
KPG1 191616Z 19004KT 16/02 A3003 RMK A01 T01560015  RH  038%=      5-min Rain = 0
KPG1 191617Z 20004KT 16/02 A3003 RMK A01 T01590016  RH  038%=      5-min Rain = 0
KPG1 191618Z 19003KT 16/02 A3003 RMK A01 T01610015  RH  037%=      5-min Rain = 0
KPG1 191619Z 18003KT 16/02 A3003 RMK A01 T01610015  RH  037%=      5-min Rain = 0
KPG1 191620Z 15002KT 16/01 A3003 RMK A01 T01620014  RH  037%=      5-min Rain = 0
KPG1 191621Z 23003KT 16/02 A3003 RMK A01 T01630016  RH  037%=      5-min Rain = 0
KPG1 191622Z 20002KT 16/02 A3003 RMK A01 T01640016  RH  037%=      5-min Rain = 0
KPG1 191623Z 22001KT 17/02 A3003 RMK A01 T01660017  RH  037%=      5-min Rain = 0
KPG1 191624Z 17003KT 17/02 A3003 RMK A01 T01690017  RH  036%=      5-min Rain = 0
KPG1 191625Z 19003KT 17/02 A3003 RMK A01 T01720016  RH  035%=      5-min Rain = 0
KPG1 191626Z 19003KT 17/02 A3003 RMK A01 T01730015  RH  034%=      5-min Rain = 0
KPG1 191627Z 20003KT 17/01 A3003 RMK A01 T01720014  RH  034%=      5-min Rain = 0
KPG1 191628Z 18002KT 17/01 A3003 RMK A01 T01710013  RH  035%=      5-min Rain = 0
KPG1 191629Z 17004KT 17/01 A3002 RMK A01 T01710014  RH  035%=      5-min Rain = 0
KPG1 191630Z 19003KT 17/01 A3002 RMK A01 T01730014  RH  034%=      5-min Rain = 0
KPG1 191631Z 21004KT 17/01 A3002 RMK A01 T01720013  RH  034%=      5-min Rain = 0
KPG1 191632Z 22003KT 17/01 A3002 RMK A01 T01720013  RH  034%=      5-min Rain = 0
KPG1 191633Z 20004KT 17/01 A3002 RMK A01 T01710014  RH  035%=      5-min Rain = 0
KPG1 191634Z 20005KT 18/02 A3002 RMK A01 T01750015  RH  034%=      5-min Rain = 0
KPG1 191635Z 20004KT 18/01 A3002 RMK A01 T01770012  RH  033%=      5-min Rain = 0
KPG1 191636Z 20003KT 18/01 A3002 RMK A01 T01770013  RH  033%=      5-min Rain = 0
KPG1 191637Z 19004KT 18/01 A3002 RMK A01 T01780014  RH  033%=      5-min Rain = 0
KPG1 191638Z 20005KT 18/01 A3002 RMK A01 T01800013  RH  033%=      5-min Rain = 0
KPG1 191639Z 21005KT 18/02 A3002 RMK A01 T01840015  RH  032%=      5-min Rain = 0
KPG1 191640Z 21006KT 19/02 A3002 RMK A01 T01850016  RH  032%=      5-min Rain = 0
KPG1 191641Z 21006KT 19/02 A3002 RMK A01 T01850016  RH  032%=      5-min Rain = 0
KPG1 191642Z 21005KT 19/02 A3002 RMK A01 T01850015  RH  032%=      5-min Rain = 0
KPG1 191643Z 21005KT 19/02 A3002 RMK A01 T01860016  RH  032%=      5-min Rain = 0
KPG1 191644Z 20003KT 19/01 A3002 RMK A01 T01860014  RH  032%=      5-min Rain = 0
KPG1 191645Z 18006KT 19/02 A3002 RMK A01 T01850022  RH  034%=      5-min Rain = 0
KPG1 191646Z 16007KT 19/03 A3002 RMK A01 T01890032  RH  035%=      5-min Rain = 0
KPG1 191647Z 15006KT 19/04 A3002 RMK A01 T01930035  RH  035%=      5-min Rain = 0
KPG1 191648Z 15006KT 20/04 A3002 RMK A01 T01950036  RH  035%=      5-min Rain = 0
KPG1 191649Z 15007KT 20/04 A3002 RMK A01 T01970035  RH  034%=      5-min Rain = 0
KPG1 191650Z 16006KT 20/04 A3002 RMK A01 T01970036  RH  034%=      5-min Rain = 0
KPG1 191651Z 17007KT 20/03 A3002 RMK A01 T01970034  RH  034%=      5-min Rain = 0
KPG1 191652Z 17006KT 20/03 A3002 RMK A01 T01970034  RH  034%=      5-min Rain = 0
KPG1 191653Z 17005KT 20/03 A3002 RMK A01 T01960034  RH  034%=      5-min Rain = 0
KPG1 191654Z 17007KT 20/03 A3002 RMK A01 T01950034  RH  034%=      5-min Rain = 0
KPG1 191655Z 18007KT 20/04 A3002 RMK A01 T01970035  RH  034%=      5-min Rain = 0
KPG1 191656Z 19006KT 20/04 A3002 RMK A01 T01990035  RH  034%=      5-min Rain = 0
KPG1 191657Z 18007KT 20/03 A3002 RMK A01 T01990034  RH  034%=      5-min Rain = 0
KPG1 191658Z 18005KT 20/03 A3002 RMK A01 T01990034  RH  034%=      5-min Rain = 0
KPG1 191659Z 18006KT 20/03 A3002 RMK A01 T02000034  RH  033%=      5-min Rain = 0
KPG1 191700Z 18007KT 20/03 A3002 RMK A01 T02000034  RH  033%=      5-min Rain = 0
KPG1 191701Z 19005KT 20/03 A3002 RMK A01 T02000034  RH  033%=      5-min Rain = 0
KPG1 191702Z 18005KT 20/04 A3002 RMK A01 T02000035  RH  034%=      5-min Rain = 0
KPG1 191703Z 17006KT 20/04 A3002 RMK A01 T02020035  RH  033%=      5-min Rain = 0
KPG1 191704Z 17005KT 20/04 A3002 RMK A01 T02020036  RH  033%=      5-min Rain = 0
KPG1 191705Z 17006KT 20/04 A3002 RMK A01 T02030035  RH  033%=      5-min Rain = 0
KPG1 191706Z 16006KT 20/04 A3002 RMK A01 T02030035  RH  033%=      5-min Rain = 0
KPG1 191707Z 18006KT 20/04 A3002 RMK A01 T02040035  RH  033%=      5-min Rain = 0
KPG1 191708Z 16005KT 20/04 A3002 RMK A01 T02010035  RH  033%=      5-min Rain = 0
KPG1 191709Z 18005KT 20/04 A3002 RMK A01 T02020038  RH  034%=      5-min Rain = 0
KPG1 191710Z 17004KT 21/04 A3001 RMK A01 T02060038  RH  033%=      5-min Rain = 0
KPG1 191711Z 18004KT 21/04 A3001 RMK A01 T02090039  RH  033%=      5-min Rain = 0
KPG1 191712Z 17006KT 21/04 A3001 RMK A01 T02100038  RH  032%=      5-min Rain = 0
KPG1 191713Z 19005KT 21/04 A3001 RMK A01 T02090037  RH  032%=      5-min Rain = 0
KPG1 191714Z 20006KT 21/04 A3001 RMK A01 T02080037  RH  032%=      5-min Rain = 0
KPG1 191715Z 20006KT 21/04 A3001 RMK A01 T02080036  RH  032%=      5-min Rain = 0
KPG1 191716Z 19005KT 21/04 A3001 RMK A01 T02080035  RH  032%=      5-min Rain = 0
KPG1 191717Z 19006KT 21/04 A3001 RMK A01 T02100035  RH  032%=      5-min Rain = 0
KPG1 191718Z 18005KT 21/04 A3001 RMK A01 T02110036  RH  032%=      5-min Rain = 0
KPG1 191719Z 19004KT 21/04 A3001 RMK A01 T02120035  RH  031%=      5-min Rain = 0
KPG1 191720Z 20004KT 21/04 A3001 RMK A01 T02110036  RH  032%=      5-min Rain = 0
KPG1 191721Z 19004KT 21/04 A3001 RMK A01 T02120035  RH  031%=      5-min Rain = 0
KPG1 191722Z 23006KT 21/04 A3001 RMK A01 T02130035  RH  031%=      5-min Rain = 0
KPG1 191723Z 22005KT 21/03 A3001 RMK A01 T02120034  RH  031%=      5-min Rain = 0
KPG1 191724Z 19004KT 21/03 A3001 RMK A01 T02120034  RH  031%=      5-min Rain = 0
KPG1 191725Z 19005KT 21/04 A3001 RMK A01 T02110035  RH  031%=      5-min Rain = 0
KPG1 191726Z 20005KT 21/04 A3001 RMK A01 T02120035  RH  031%=      5-min Rain = 0
KPG1 191727Z 19005KT 22/04 A3001 RMK A01 T02150037  RH  031%=      5-min Rain = 0
KPG1 191728Z 19006KT 22/04 A3001 RMK A01 T02180036  RH  030%=      5-min Rain = 0
KPG1 191729Z 20007KT 22/04 A30 RMK A01 T02190036  RH  030%=      5-min Rain = 0
KPG1 191730Z 20006KT 22/04 A30 RMK A01 T02180036  RH  030%=      5-min Rain = 0
KPG1 191731Z 22005KT 22/04 A30 RMK A01 T02170037  RH  031%=      5-min Rain = 0
KPG1 191732Z 21006KT 22/04 A30 RMK A01 T02160036  RH  031%=      5-min Rain = 0
KPG1 191733Z 20005KT 22/04 A30 RMK A01 T02150036  RH  031%=      5-min Rain = 0
KPG1 191734Z 19005KT 21/04 A30 RMK A01 T02140037  RH  031%=      5-min Rain = 0
KPG1 191735Z 20006KT 22/04 A30 RMK A01 T02160037  RH  031%=      5-min Rain = 0
KPG1 191736Z 18004KT 22/04 A30 RMK A01 T02180037  RH  030%=      5-min Rain = 0
KPG1 191737Z 19006KT 22/04 A30 RMK A01 T02190038  RH  030%=      5-min Rain = 0
KPG1 191738Z 19008KT 22/04 A30 RMK A01 T02210039  RH  030%=      5-min Rain = 0
KPG1 191739Z 19008KT 22/04 A30 RMK A01 T02220039  RH  030%=      5-min Rain = 0
KPG1 191740Z 19007KT 22/04 A30 RMK A01 T02220039  RH  030%=      5-min Rain = 0
KPG1 191741Z 19006KT 22/04 A30 RMK A01 T02220038  RH  030%=      5-min Rain = 0
KPG1 191742Z 21005KT 22/04 A2999 RMK A01 T02210038  RH  030%=      5-min Rain = 0
KPG1 191743Z 19005KT 22/04 A2999 RMK A01 T02230040  RH  030%=      5-min Rain = 0
KPG1 191744Z 18006KT 23/04 A2999 RMK A01 T02270039  RH  029%=      5-min Rain = 0
KPG1 191745Z 19005KT 23/04 A2999 RMK A01 T02290039  RH  029%=      5-min Rain = 0
KPG1 191746Z 21005KT 23/04 A2999 RMK A01 T02290040  RH  029%=      5-min Rain = 0
KPG1 191747Z 21007KT 23/04 A2999 RMK A01 T02280040  RH  029%=      5-min Rain = 0
KPG1 191748Z 21007KT 23/04 A2999 RMK A01 T02280042  RH  030%=      5-min Rain = 0
KPG1 191749Z 23005KT 23/04 A2999 RMK A01 T02280041  RH  030%=      5-min Rain = 0
KPG1 191750Z 21006KT 23/04 A2999 RMK A01 T02270041  RH  030%=      5-min Rain = 0
KPG1 191751Z 20006KT 23/04 A2999 RMK A01 T02280042  RH  030%=      5-min Rain = 0
KPG1 191752Z 20006KT 23/04 A2999 RMK A01 T02320044  RH  029%=      5-min Rain = 0
KPG1 191753Z 18007KT 24/04 A2999 RMK A01 T02350044  RH  029%=      5-min Rain = 0
KPG1 191754Z 19007KT 24/04 A2999 RMK A01 T02370044  RH  029%=      5-min Rain = 0
KPG1 191755Z 19007KT 24/04 A2999 RMK A01 T02370044  RH  029%=      5-min Rain = 0
KPG1 191756Z 19008KT 24/05 A2999 RMK A01 T02370045  RH  029%=      5-min Rain = 0
KPG1 191757Z 20007KT 24/04 A2999 RMK A01 T02370044  RH  029%=      5-min Rain = 0
KPG1 191758Z 20006KT 24/04 A2999 RMK A01 T02380044  RH  028%=      5-min Rain = 0
KPG1 191759Z 19008KT 24/05 A2999 RMK A01 T02360045  RH  029%=      5-min Rain = 0
KPG1 191800Z 18006KT 24/04 A2999 RMK A01 T02350044  RH  029%=      5-min Rain = 0
KPG1 191801Z 17006KT 24/04 A2999 RMK A01 T02350043  RH  029%=      5-min Rain = 0
KPG1 191802Z 22005KT 24/04 A2999 RMK A01 T02360044  RH  029%=      5-min Rain = 0
KPG1 191803Z 20006KT 24/04 A2999 RMK A01 T02370044  RH  029%=      5-min Rain = 0
KPG1 191804Z 19006KT 24/05 A2999 RMK A01 T02390046  RH  028%=      5-min Rain = 0
KPG1 191805Z 22005KT 24/04 A2999 RMK A01 T02420044  RH  028%=      5-min Rain = 0
KPG1 191806Z 20005KT 24/04 A2998 RMK A01 T02400044  RH  028%=      5-min Rain = 0
KPG1 191807Z 20005KT 24/04 A2998 RMK A01 T02380044  RH  028%=      5-min Rain = 0
KPG1 191808Z 17006KT 24/05 A2998 RMK A01 T02390046  RH  029%=      5-min Rain = 0
KPG1 191809Z 17007KT 24/05 A2998 RMK A01 T02420047  RH  028%=      5-min Rain = 0
KPG1 191810Z 18008KT 24/05 A2998 RMK A01 T02430046  RH  028%=      5-min Rain = 0
KPG1 191811Z 19008KT 24/05 A2998 RMK A01 T02420046  RH  028%=      5-min Rain = 0
KPG1 191812Z 19008KT 24/05 A2998 RMK A01 T02410046  RH  028%=      5-min Rain = 0
KPG1 191813Z 20006KT 24/05 A2998 RMK A01 T02400046  RH  028%=      5-min Rain = 0
KPG1 191814Z 18008KT 24/05 A2998 RMK A01 T02390046  RH  029%=      5-min Rain = 0
KPG1 191815Z 19008KT 24/05 A2998 RMK A01 T02410049  RH  029%=      5-min Rain = 0
KPG1 191816Z 20008KT 24/05 A2998 RMK A01 T02420049  RH  029%=      5-min Rain = 0
KPG1 191817Z 20008KT 24/05 A2998 RMK A01 T02410048  RH  029%=      5-min Rain = 0
KPG1 191818Z 21007KT 24/05 A2998 RMK A01 T02390047  RH  029%=      5-min Rain = 0
KPG1 191819Z 21007KT 24/05 A2998 RMK A01 T02390047  RH  029%=      5-min Rain = 0
KPG1 191820Z 18008KT 24/05 A2998 RMK A01 T02410050  RH  029%=      5-min Rain = 0
KPG1 191821Z 18008KT 25/05 A2998 RMK A01 T02450053  RH  029%=      5-min Rain = 0
KPG1 191822Z 17009KT 25/05 A2998 RMK A01 T02450053  RH  029%=      5-min Rain = 0
KPG1 191823Z 17007KT 24/05 A2998 RMK A01 T02440053  RH  029%=      5-min Rain = 0
KPG1 191824Z 16007KT 24/05 A2997 RMK A01 T02430054  RH  029%=      5-min Rain = 0
KPG1 191825Z 20007KT 24/05 A2997 RMK A01 T02440054  RH  029%=      5-min Rain = 0
KPG1 191826Z 20007KT 25/06 A2997 RMK A01 T02460055  RH  029%=      5-min Rain = 0
KPG1 191827Z 20008KT 25/06 A2997 RMK A01 T02460058  RH  030%=      5-min Rain = 0
KPG1 191828Z 20009KT 25/06 A2997 RMK A01 T02470056  RH  029%=      5-min Rain = 0
KPG1 191829Z 19009KT 25/05 A2997 RMK A01 T02460054  RH  029%=      5-min Rain = 0
KPG1 191830Z 20007KT 24/05 A2997 RMK A01 T02430054  RH  029%=      5-min Rain = 0
KPG1 191831Z 20007KT 24/05 A2997 RMK A01 T02420054  RH  030%=      5-min Rain = 0
KPG1 191832Z 18009KT 24/06 A2997 RMK A01 T02410058  RH  031%=      5-min Rain = 0
KPG1 191833Z 19008KT 24/06 A2997 RMK A01 T02430059  RH  031%=      5-min Rain = 0
KPG1 191834Z 19007KT 24/06 A2997 RMK A01 T02440059  RH  030%=      5-min Rain = 0
KPG1 191835Z 22006KT 25/06 A2997 RMK A01 T02450058  RH  030%=      5-min Rain = 0
KPG1 191836Z 19006KT 25/06 A2997 RMK A01 T02450059  RH  030%=      5-min Rain = 0
KPG1 191837Z 19006KT 25/06 A2996 RMK A01 T02470062  RH  030%=      5-min Rain = 0
KPG1 191838Z 18007KT 25/06 A2996 RMK A01 T02510062  RH  030%=      5-min Rain = 0
KPG1 191839Z 20008KT 25/06 A2996 RMK A01 T02530063  RH  030%=      5-min Rain = 0
KPG1 191840Z 22008KT 26/06 A2996 RMK A01 T02550062  RH  029%=      5-min Rain = 0
KPG1 191841Z 19008KT 25/06 A2996 RMK A01 T02540062  RH  029%=      5-min Rain = 0
KPG1 191842Z 22008KT 25/06 A2996 RMK A01 T02530062  RH  029%=      5-min Rain = 0
KPG1 191843Z 21008KT 25/06 A2996 RMK A01 T02530062  RH  029%=      5-min Rain = 0
KPG1 191844Z 20008KT 25/06 A2996 RMK A01 T02520063  RH  030%=      5-min Rain = 0
KPG1 191845Z 22008KT 25/06 A2996 RMK A01 T02530064  RH  030%=      5-min Rain = 0
KPG1 191846Z 22007KT 25/06 A2996 RMK A01 T02530063  RH  030%=      5-min Rain = 0
KPG1 191847Z 22008KT 25/06 A2995 RMK A01 T02510063  RH  030%=      5-min Rain = 0
KPG1 191848Z 21009KT 25/06 A2995 RMK A01 T02500062  RH  030%=      5-min Rain = 0
KPG1 191849Z 22008KT 25/06 A2995 RMK A01 T02520062  RH  030%=      5-min Rain = 0
KPG1 191850Z 22008KT 25/06 A2995 RMK A01 T02520062  RH  029%=      5-min Rain = 0
KPG1 191851Z 23008KT 25/06 A2995 RMK A01 T02520061  RH  029%=      5-min Rain = 0
KPG1 191852Z 21009KT 25/06 A2995 RMK A01 T02530062  RH  029%=      5-min Rain = 0
KPG1 191853Z 18008KT 26/06 A2995 RMK A01 T02550063  RH  029%=      5-min Rain = 0
KPG1 191854Z 21008KT 26/06 A2995 RMK A01 T02580064  RH  029%=      5-min Rain = 0
KPG1 191855Z 21006KT 26/06 A2995 RMK A01 T02590064  RH  029%=      5-min Rain = 0
KPG1 191856Z 20008KT 26/06 A2995 RMK A01 T02590064  RH  029%=      5-min Rain = 0
KPG1 191857Z 20009KT 26/06 A2995 RMK A01 T02610064  RH  029%=      5-min Rain = 0
KPG1 191858Z 19010KT 26/06 A2995 RMK A01 T02610063  RH  028%=      5-min Rain = 0
KPG1 191859Z 18008KT 26/06 A2995 RMK A01 T02590061  RH  028%=      5-min Rain = 0
KPG1 191900Z 17007KT 26/06 A2995 RMK A01 T02590060  RH  028%=      5-min Rain = 0
KPG1 191901Z 20007KT 26/06 A2995 RMK A01 T02590062  RH  028%=      5-min Rain = 0
KPG1 191902Z 18007KT 26/06 A2995 RMK A01 T02610061  RH  028%=      5-min Rain = 0
KPG1 191903Z 17008KT 26/06 A2994 RMK A01 T02630061  RH  028%=      5-min Rain = 0
KPG1 191904Z 18006KT 26/06 A2994 RMK A01 T02640060  RH  027%=      5-min Rain = 0
KPG1 191905Z 18010KT 27/06 A2994 RMK A01 T02680061  RH  027%=      5-min Rain = 0
KPG1 191906Z 19010KT 27/06 A2994 RMK A01 T02690058  RH  026%=      5-min Rain = 0
KPG1 191907Z 18010KT 27/06 A2994 RMK A01 T02680057  RH  026%=      5-min Rain = 0
KPG1 191908Z 18010KT 27/06 A2994 RMK A01 T02670057  RH  026%=      5-min Rain = 0
KPG1 191909Z 19008KT 27/06 A2994 RMK A01 T02670056  RH  026%=      5-min Rain = 0
KPG1 191910Z 19010KT 27/06 A2994 RMK A01 T02660057  RH  026%=      5-min Rain = 0
KPG1 191911Z 19008KT 26/06 A2994 RMK A01 T02640057  RH  027%=      5-min Rain = 0
KPG1 191912Z 20008KT 26/06 A2994 RMK A01 T02630058  RH  027%=      5-min Rain = 0
KPG1 191913Z 20011KT 26/06 A2994 RMK A01 T02640057  RH  027%=      5-min Rain = 0
KPG1 191914Z 19010KT 27/06 A2994 RMK A01 T02670056  RH  026%=      5-min Rain = 0
KPG1 191915Z 18011KT 27/06 A2994 RMK A01 T02670056  RH  026%=      5-min Rain = 0
KPG1 191916Z 18010KT 27/06 A2993 RMK A01 T02690055  RH  026%=      5-min Rain = 0
KPG1 191917Z 19009KT 27/06 A2993 RMK A01 T02680056  RH  026%=      5-min Rain = 0
KPG1 191918Z 19010KT 27/06 A2993 RMK A01 T02660056  RH  026%=      5-min Rain = 0
KPG1 191919Z 18011KT 27/06 A2993 RMK A01 T02660057  RH  026%=      5-min Rain = 0
KPG1 191920Z 18009KT 27/06 A2993 RMK A01 T02670057  RH  026%=      5-min Rain = 0
KPG1 191921Z 18008KT 27/06 A2993 RMK A01 T02670058  RH  026%=      5-min Rain = 0
KPG1 191922Z 20008KT 27/06 A2993 RMK A01 T02660057  RH  026%=      5-min Rain = 0
KPG1 191923Z 19007KT 27/06 A2993 RMK A01 T02660056  RH  026%=      5-min Rain = 0
KPG1 191924Z 21009KT 27/06 A2993 RMK A01 T02660057  RH  026%=      5-min Rain = 0
KPG1 191925Z 22008KT 27/06 A2993 RMK A01 T02680055  RH  026%=      5-min Rain = 0
KPG1 191926Z 22008KT 27/06 A2993 RMK A01 T02670055  RH  026%=      5-min Rain = 0
KPG1 191927Z 22008KT 27/05 A2993 RMK A01 T02650054  RH  026%=      5-min Rain = 0
KPG1 191928Z 20008KT 26/06 A2993 RMK A01 T02630055  RH  026%=      5-min Rain = 0
KPG1 191929Z 20007KT 26/06 A2993 RMK A01 T02640057  RH  027%=      5-min Rain = 0
KPG1 191930Z 19008KT 27/06 A2993 RMK A01 T02650059  RH  027%=      5-min Rain = 0
KPG1 191931Z 18009KT 27/06 A2993 RMK A01 T02670058  RH  026%=      5-min Rain = 0
KPG1 191932Z 18009KT 27/06 A2993 RMK A01 T02670057  RH  026%=      5-min Rain = 0
KPG1 191933Z 19006KT 27/06 A2993 RMK A01 T02680058  RH  026%=      5-min Rain = 0
KPG1 191934Z 17009KT 27/06 A2993 RMK A01 T02680059  RH  026%=      5-min Rain = 0
KPG1 191935Z 18009KT 27/05 A2993 RMK A01 T02700054  RH  025%=      5-min Rain = 0
KPG1 191936Z 18008KT 27/05 A2993 RMK A01 T02700054  RH  025%=      5-min Rain = 0
KPG1 191937Z 20007KT 27/06 A2992 RMK A01 T02710055  RH  025%=      5-min Rain = 0
KPG1 191938Z 19008KT 27/06 A2992 RMK A01 T02720055  RH  025%=      5-min Rain = 0
KPG1 191939Z 17009KT 27/06 A2992 RMK A01 T02720055  RH  025%=      5-min Rain = 0
KPG1 191940Z 19008KT 27/06 A2992 RMK A01 T02720055  RH  025%=      5-min Rain = 0
KPG1 191941Z 20008KT 27/06 A2992 RMK A01 T02720056  RH  025%=      5-min Rain = 0
KPG1 191942Z 19009KT 27/06 A2992 RMK A01 T02710056  RH  025%=      5-min Rain = 0
KPG1 191943Z 18007KT 27/06 A2992 RMK A01 T02700056  RH  025%=      5-min Rain = 0
KPG1 191944Z 21006KT 27/06 A2992 RMK A01 T02710057  RH  026%=      5-min Rain = 0
KPG1 191945Z 21006KT 28/06 A2992 RMK A01 T02750058  RH  025%=      5-min Rain = 0
KPG1 191946Z 20007KT 28/06 A2992 RMK A01 T02760058  RH  025%=      5-min Rain = 0
KPG1 191947Z 22008KT 28/06 A2992 RMK A01 T02790057  RH  024%=      5-min Rain = 0
KPG1 191948Z 24008KT 28/06 A2992 RMK A01 T02800057  RH  024%=      5-min Rain = 0
KPG1 191949Z 23006KT 28/06 A2992 RMK A01 T02810056  RH  024%=      5-min Rain = 0
KPG1 191950Z 21008KT 28/06 A2992 RMK A01 T02790057  RH  024%=      5-min Rain = 0
KPG1 191951Z 21006KT 28/06 A2992 RMK A01 T02780055  RH  024%=      5-min Rain = 0
KPG1 191952Z 19007KT 27/06 A2992 RMK A01 T02740056  RH  025%=      5-min Rain = 0
KPG1 191953Z 17006KT 27/06 A2992 RMK A01 T02730056  RH  025%=      5-min Rain = 0
KPG1 191954Z 18006KT 27/06 A2991 RMK A01 T02730056  RH  025%=      5-min Rain = 0
KPG1 191955Z 19006KT 27/06 A2991 RMK A01 T02730056  RH  025%=      5-min Rain = 0
KPG1 191956Z 20011KT 27/06 A2991 RMK A01 T02730057  RH  025%=      5-min Rain = 0
KPG1 191957Z 19011KT 27/06 A2991 RMK A01 T02740059  RH  025%=      5-min Rain = 0
KPG1 191958Z 20008KT 27/06 A2991 RMK A01 T02730061  RH  026%=      5-min Rain = 0
KPG1 191959Z 21009KT 27/06 A2991 RMK A01 T02720062  RH  026%=      5-min Rain = 0
KPG1 192000Z 21007KT 27/06 A2991 RMK A01 T02700057  RH  026%=      5-min Rain = 0
KPG1 192001Z 21006KT 27/06 A2991 RMK A01 T02690058  RH  026%=      5-min Rain = 0
KPG1 192002Z 20007KT 27/06 A2991 RMK A01 T02690058  RH  026%=      5-min Rain = 0
KPG1 192003Z 22006KT 27/06 A2991 RMK A01 T02700058  RH  026%=      5-min Rain = 0
KPG1 192004Z 19007KT 27/06 A2991 RMK A01 T02690059  RH  026%=      5-min Rain = 0
KPG1 192005Z 19006KT 27/06 A2991 RMK A01 T02700060  RH  026%=      5-min Rain = 0
KPG1 192006Z 18009KT 27/06 A299 RMK A01 T02710062  RH  026%=      5-min Rain = 0
KPG1 192007Z 18010KT 27/06 A299 RMK A01 T02710061  RH  026%=      5-min Rain = 0
KPG1 192008Z 17011KT 27/06 A299 RMK A01 T02720061  RH  026%=      5-min Rain = 0
KPG1 192009Z 17012KT 27/06 A299 RMK A01 T02720061  RH  026%=      5-min Rain = 0
KPG1 192010Z 16009KT 27/06 A299 RMK A01 T02700060  RH  026%=      5-min Rain = 0
KPG1 192011Z 16009KT 27/06 A299 RMK A01 T02690061  RH  027%=      5-min Rain = 0
KPG1 192012Z 18008KT 27/06 A299 RMK A01 T02680061  RH  027%=      5-min Rain = 0
KPG1 192013Z 17009KT 27/06 A299 RMK A01 T02690061  RH  027%=      5-min Rain = 0
KPG1 192014Z 17010KT 27/06 A299 RMK A01 T02700061  RH  026%=      5-min Rain = 0
KPG1 192015Z 18011KT 27/06 A299 RMK A01 T02700061  RH  026%=      5-min Rain = 0
KPG1 192016Z 17010KT 27/06 A299 RMK A01 T02690061  RH  027%=      5-min Rain = 0
KPG1 192017Z 17009KT 27/06 A299 RMK A01 T02680061  RH  027%=      5-min Rain = 0
KPG1 192018Z 18011KT 27/06 A299 RMK A01 T02690062  RH  027%=      5-min Rain = 0
KPG1 192019Z 18009KT 27/06 A299 RMK A01 T02700062  RH  027%=      5-min Rain = 0
KPG1 192020Z 17007KT 27/06 A299 RMK A01 T02710063  RH  027%=      5-min Rain = 0
KPG1 192021Z 17010KT 27/06 A299 RMK A01 T02720064  RH  027%=      5-min Rain = 0
KPG1 192022Z 18011KT 27/06 A299 RMK A01 T02710063  RH  027%=      5-min Rain = 0
KPG1 192023Z 18011KT 27/06 A299 RMK A01 T02690063  RH  027%=      5-min Rain = 0
KPG1 192024Z 17010KT 27/06 A2989 RMK A01 T02690063  RH  027%=      5-min Rain = 0
KPG1 192025Z 15010KT 27/06 A2989 RMK A01 T02680064  RH  027%=      5-min Rain = 0
KPG1 192026Z 16012KT 27/06 A2989 RMK A01 T02680062  RH  027%=      5-min Rain = 0
KPG1 192027Z 16011KT 27/06 A2989 RMK A01 T02670061  RH  027%=      5-min Rain = 0
KPG1 192028Z 16012KT 27/06 A2989 RMK A01 T02670062  RH  027%=      5-min Rain = 0
KPG1 192029Z 16009KT 27/06 A2989 RMK A01 T02670062  RH  027%=      5-min Rain = 0
KPG1 192030Z 16010KT 27/06 A2989 RMK A01 T02670064  RH  027%=      5-min Rain = 0
KPG1 192031Z 15013KT 27/06 A2989 RMK A01 T02680061  RH  027%=      5-min Rain = 0
KPG1 192032Z 16010KT 27/06 A2989 RMK A01 T02680060  RH  027%=      5-min Rain = 0
KPG1 192033Z 16011KT 27/06 A2989 RMK A01 T02680061  RH  027%=      5-min Rain = 0
KPG1 192034Z 16010KT 27/06 A2989 RMK A01 T02680061  RH  027%=      5-min Rain = 0
KPG1 192035Z 17009KT 27/06 A2989 RMK A01 T02680062  RH  027%=      5-min Rain = 0
KPG1 192036Z 17009KT 27/06 A2989 RMK A01 T02690063  RH  027%=      5-min Rain = 0
KPG1 192037Z 19008KT 27/06 A2989 RMK A01 T02690063  RH  027%=      5-min Rain = 0
KPG1 192038Z 19006KT 27/06 A2989 RMK A01 T02690063  RH  027%=      5-min Rain = 0
KPG1 192039Z 19009KT 27/06 A2989 RMK A01 T02710063  RH  027%=      5-min Rain = 0
KPG1 192040Z 19008KT 27/06 A2989 RMK A01 T02710063  RH  027%=      5-min Rain = 0
KPG1 192041Z 18010KT 27/06 A2989 RMK A01 T02720061  RH  026%=      5-min Rain = 0
KPG1 192042Z 19010KT 27/06 A2989 RMK A01 T02730057  RH  025%=      5-min Rain = 0
KPG1 192043Z 18008KT 27/06 A2989 RMK A01 T02740058  RH  025%=      5-min Rain = 0
KPG1 192044Z 18006KT 28/06 A2989 RMK A01 T02780061  RH  025%=      5-min Rain = 0
KPG1 192045Z 19008KT 28/06 A2989 RMK A01 T02820060  RH  024%=      5-min Rain = 0
KPG1 192046Z 18006KT 28/06 A2989 RMK A01 T02830058  RH  024%=      5-min Rain = 0
KPG1 192047Z 17009KT 28/06 A2989 RMK A01 T02820058  RH  024%=      5-min Rain = 0
KPG1 192048Z 18011KT 28/06 A2989 RMK A01 T02820055  RH  024%=      5-min Rain = 0
KPG1 192049Z 19010KT 28/05 A2989 RMK A01 T02820053  RH  023%=      5-min Rain = 0
KPG1 192050Z 21008KT 28/05 A2989 RMK A01 T02810054  RH  023%=      5-min Rain = 0
KPG1 192051Z 20008KT 28/05 A2989 RMK A01 T02810054  RH  024%=      5-min Rain = 0
KPG1 192052Z 18009KT 28/06 A2989 RMK A01 T02810057  RH  024%=      5-min Rain = 0
KPG1 192053Z 19009KT 28/06 A2988 RMK A01 T02820056  RH  024%=      5-min Rain = 0
KPG1 192054Z 18009KT 28/06 A2988 RMK A01 T02800057  RH  024%=      5-min Rain = 0
KPG1 192055Z 17010KT 28/06 A2988 RMK A01 T02820058  RH  024%=      5-min Rain = 0
KPG1 192056Z 19009KT 28/06 A2988 RMK A01 T02820058  RH  024%=      5-min Rain = 0
KPG1 192057Z 20011KT 28/06 A2988 RMK A01 T02830058  RH  024%=      5-min Rain = 0
KPG1 192058Z 18010KT 28/06 A2988 RMK A01 T02830057  RH  024%=      5-min Rain = 0
KPG1 192059Z 17010KT 28/06 A2988 RMK A01 T02820055  RH  024%=      5-min Rain = 0
KPG1 192100Z 18010KT 28/06 A2988 RMK A01 T02820055  RH  024%=      5-min Rain = 0
KPG1 192101Z 18010KT 28/06 A2988 RMK A01 T02820055  RH  024%=      5-min Rain = 0
KPG1 192102Z 18010KT 28/05 A2988 RMK A01 T02830054  RH  023%=      5-min Rain = 0
KPG1 192103Z 18010KT 28/05 A2988 RMK A01 T02840053  RH  023%=      5-min Rain = 0
KPG1 192104Z 19010KT 28/05 A2988 RMK A01 T02830052  RH  023%=      5-min Rain = 0
KPG1 192105Z 21006KT 28/05 A2988 RMK A01 T02810051  RH  023%=      5-min Rain = 0
KPG1 192106Z 19005KT 28/05 A2988 RMK A01 T02790052  RH  024%=      5-min Rain = 0
KPG1 192107Z 20005KT 28/05 A2988 RMK A01 T02800051  RH  023%=      5-min Rain = 0
KPG1 192108Z 20005KT 28/05 A2988 RMK A01 T02800052  RH  023%=      5-min Rain = 0
KPG1 192109Z 18007KT 28/05 A2988 RMK A01 T02820053  RH  023%=      5-min Rain = 0
KPG1 192110Z 19008KT 28/05 A2988 RMK A01 T02830054  RH  023%=      5-min Rain = 0
KPG1 192111Z 21010KT 28/05 A2988 RMK A01 T02820054  RH  023%=      5-min Rain = 0
KPG1 192112Z 22009KT 28/06 A2988 RMK A01 T02820055  RH  024%=      5-min Rain = 0
KPG1 192113Z 23009KT 28/06 A2988 RMK A01 T02830056  RH  024%=      5-min Rain = 0
KPG1 192114Z 22006KT 28/06 A2988 RMK A01 T02820055  RH  024%=      5-min Rain = 0
KPG1 192115Z 20005KT 28/06 A2988 RMK A01 T02830055  RH  024%=      5-min Rain = 0
KPG1 192116Z 19006KT 28/06 A2988 RMK A01 T02820055  RH  024%=      5-min Rain = 0
KPG1 192117Z 18007KT 28/05 A2988 RMK A01 T02810054  RH  024%=      5-min Rain = 0
KPG1 192118Z 18008KT 28/06 A2988 RMK A01 T02800055  RH  024%=      5-min Rain = 0
KPG1 192119Z 18008KT 28/05 A2988 RMK A01 T02800054  RH  024%=      5-min Rain = 0
KPG1 192120Z 17008KT 28/05 A2988 RMK A01 T02780054  RH  024%=      5-min Rain = 0
KPG1 192121Z 17006KT 28/06 A2987 RMK A01 T02770055  RH  024%=      5-min Rain = 0
KPG1 192122Z 17006KT 28/06 A2987 RMK A01 T02770056  RH  025%=      5-min Rain = 0
KPG1 192123Z 17010KT 28/06 A2987 RMK A01 T02770057  RH  025%=      5-min Rain = 0
KPG1 192124Z 17008KT 28/06 A2987 RMK A01 T02770058  RH  025%=      5-min Rain = 0
KPG1 192125Z 16011KT 28/06 A2987 RMK A01 T02760058  RH  025%=      5-min Rain = 0
KPG1 192126Z 18009KT 28/06 A2987 RMK A01 T02760058  RH  025%=      5-min Rain = 0
KPG1 192127Z 18011KT 28/06 A2987 RMK A01 T02780058  RH  025%=      5-min Rain = 0
KPG1 192128Z 17009KT 28/06 A2987 RMK A01 T02780058  RH  025%=      5-min Rain = 0
KPG1 192129Z 17009KT 28/06 A2987 RMK A01 T02770057  RH  025%=      5-min Rain = 0
KPG1 192130Z 18010KT 28/06 A2987 RMK A01 T02760057  RH  025%=      5-min Rain = 0
KPG1 192131Z 17009KT 28/06 A2987 RMK A01 T02760057  RH  025%=      5-min Rain = 0
KPG1 192132Z 18007KT 27/06 A2987 RMK A01 T02740057  RH  025%=      5-min Rain = 0
KPG1 192133Z 18007KT 27/06 A2987 RMK A01 T02740057  RH  025%=      5-min Rain = 0
KPG1 192134Z 18008KT 28/06 A2987 RMK A01 T02750058  RH  025%=      5-min Rain = 0
KPG1 192135Z 18011KT 28/06 A2988 RMK A01 T02750058  RH  025%=      5-min Rain = 0
KPG1 192136Z 18011KT 27/06 A2987 RMK A01 T02740058  RH  025%=      5-min Rain = 0
KPG1 192137Z 18011KT 27/06 A2988 RMK A01 T02730059  RH  026%=      5-min Rain = 0
KPG1 192138Z 17010KT 27/06 A2988 RMK A01 T02720059  RH  026%=      5-min Rain = 0
KPG1 192139Z 19012KT 27/06 A2987 RMK A01 T02720056  RH  025%=      5-min Rain = 0
KPG1 192140Z 19008KT 27/05 A2988 RMK A01 T02720054  RH  025%=      5-min Rain = 0
KPG1 192141Z 18010KT 27/06 A2988 RMK A01 T02720055  RH  025%=      5-min Rain = 0
KPG1 192142Z 16007KT 27/06 A2988 RMK A01 T02720059  RH  026%=      5-min Rain = 0
KPG1 192143Z 17007KT 27/06 A2988 RMK A01 T02720060  RH  026%=      5-min Rain = 0
KPG1 192144Z 18007KT 27/06 A2988 RMK A01 T02720060  RH  026%=      5-min Rain = 0
KPG1 192145Z 17009KT 27/06 A2988 RMK A01 T02710060  RH  026%=      5-min Rain = 0
KPG1 192146Z 17009KT 27/06 A2988 RMK A01 T02710060  RH  026%=      5-min Rain = 0
KPG1 192147Z 17008KT 27/06 A2987 RMK A01 T02710060  RH  026%=      5-min Rain = 0
KPG1 192148Z 17009KT 27/06 A2987 RMK A01 T02710060  RH  026%=      5-min Rain = 0
KPG1 192149Z 16009KT 27/06 A2987 RMK A01 T02710060  RH  026%=      5-min Rain = 0
KPG1 192150Z 16009KT 27/06 A2987 RMK A01 T02710060  RH  026%=      5-min Rain = 0
KPG1 192151Z 17007KT 27/06 A2987 RMK A01 T02710059  RH  026%=      5-min Rain = 0
KPG1 192152Z 18007KT 27/06 A2987 RMK A01 T02700059  RH  026%=      5-min Rain = 0
KPG1 192153Z 18008KT 27/06 A2987 RMK A01 T02700060  RH  026%=      5-min Rain = 0
KPG1 192154Z 17008KT 27/06 A2987 RMK A01 T02700060  RH  026%=      5-min Rain = 0
KPG1 192155Z 18007KT 27/06 A2987 RMK A01 T02710060  RH  026%=      5-min Rain = 0
KPG1 192156Z 18009KT 27/06 A2987 RMK A01 T02700060  RH  026%=      5-min Rain = 0
KPG1 192157Z 17009KT 27/06 A2987 RMK A01 T02700060  RH  026%=      5-min Rain = 0
KPG1 192158Z 17006KT 27/06 A2987 RMK A01 T02690060  RH  026%=      5-min Rain = 0
KPG1 192159Z 18008KT 27/06 A2987 RMK A01 T02690060  RH  026%=      5-min Rain = 0
KPG1 192200Z 16007KT 27/06 A2987 RMK A01 T02690060  RH  026%=      5-min Rain = 0
KPG1 192201Z 17006KT 27/06 A2987 RMK A01 T02680060  RH  027%=      5-min Rain = 0
KPG1 192202Z 17005KT 27/06 A2987 RMK A01 T02680060  RH  027%=      5-min Rain = 0
KPG1 192203Z 18008KT 27/06 A2987 RMK A01 T02680060  RH  027%=      5-min Rain = 0
KPG1 192204Z 18009KT 27/06 A2987 RMK A01 T02680059  RH  026%=      5-min Rain = 0
KPG1 192205Z 17008KT 27/06 A2987 RMK A01 T02680059  RH  026%=      5-min Rain = 0
KPG1 192206Z 17008KT 27/06 A2987 RMK A01 T02680059  RH  026%=      5-min Rain = 0
KPG1 192207Z 17008KT 27/06 A2987 RMK A01 T02670059  RH  026%=      5-min Rain = 0
KPG1 192208Z 16009KT 27/06 A2987 RMK A01 T02670059  RH  027%=      5-min Rain = 0
KPG1 192209Z 16008KT 27/06 A2987 RMK A01 T02660058  RH  026%=      5-min Rain = 0
KPG1 192210Z 16007KT 27/06 A2987 RMK A01 T02660059  RH  027%=      5-min Rain = 0
KPG1 192211Z 15009KT 27/06 A2987 RMK A01 T02660058  RH  026%=      5-min Rain = 0
KPG1 192212Z 16009KT 27/06 A2987 RMK A01 T02660057  RH  026%=      5-min Rain = 0
KPG1 192213Z 17008KT 27/06 A2987 RMK A01 T02660057  RH  026%=      5-min Rain = 0
KPG1 192214Z 18009KT 27/06 A2987 RMK A01 T02660057  RH  026%=      5-min Rain = 0
KPG1 192215Z 17009KT 27/06 A2987 RMK A01 T02660057  RH  026%=      5-min Rain = 0
KPG1 192216Z 18008KT 27/06 A2987 RMK A01 T02670057  RH  026%=      5-min Rain = 0
KPG1 192217Z 18008KT 27/06 A2987 RMK A01 T02670057  RH  026%=      5-min Rain = 0
KPG1 192218Z 18009KT 27/06 A2987 RMK A01 T02670057  RH  026%=      5-min Rain = 0
KPG1 192219Z 17009KT 27/06 A2987 RMK A01 T02670056  RH  026%=      5-min Rain = 0
KPG1 192220Z 17007KT 27/06 A2987 RMK A01 T02670057  RH  026%=      5-min Rain = 0
KPG1 192221Z 17007KT 27/06 A2987 RMK A01 T02670057  RH  026%=      5-min Rain = 0
KPG1 192222Z 18007KT 27/06 A2987 RMK A01 T02670057  RH  026%=      5-min Rain = 0
KPG1 192223Z 18010KT 27/06 A2987 RMK A01 T02660057  RH  026%=      5-min Rain = 0
KPG1 192224Z 18009KT 27/06 A2987 RMK A01 T02670057  RH  026%=      5-min Rain = 0
KPG1 192225Z 18008KT 27/06 A2987 RMK A01 T02660056  RH  026%=      5-min Rain = 0
KPG1 192226Z 18010KT 27/06 A2987 RMK A01 T02660057  RH  026%=      5-min Rain = 0
KPG1 192227Z 17009KT 27/06 A2987 RMK A01 T02660057  RH  026%=      5-min Rain = 0
KPG1 192228Z 17010KT 27/06 A2987 RMK A01 T02660057  RH  026%=      5-min Rain = 0
KPG1 192229Z 17007KT 27/06 A2987 RMK A01 T02660057  RH  026%=      5-min Rain = 0
KPG1 192230Z 17008KT 27/06 A2987 RMK A01 T02670058  RH  026%=      5-min Rain = 0
KPG1 192231Z 17007KT 27/06 A2987 RMK A01 T02680058  RH  026%=      5-min Rain = 0
KPG1 192232Z 18007KT 27/06 A2987 RMK A01 T02690058  RH  026%=      5-min Rain = 0
KPG1 192233Z 17009KT 27/06 A2987 RMK A01 T02690058  RH  026%=      5-min Rain = 0
KPG1 192234Z 17009KT 27/06 A2987 RMK A01 T02700058  RH  026%=      5-min Rain = 0
KPG1 192235Z 17009KT 27/06 A2987 RMK A01 T02700057  RH  026%=      5-min Rain = 0
KPG1 192236Z 17009KT 27/06 A2987 RMK A01 T02690058  RH  026%=      5-min Rain = 0
KPG1 192237Z 17008KT 27/06 A2987 RMK A01 T02690058  RH  026%=      5-min Rain = 0
KPG1 192238Z 17008KT 27/06 A2987 RMK A01 T02690058  RH  026%=      5-min Rain = 0
KPG1 192239Z 16009KT 27/06 A2987 RMK A01 T02690058  RH  026%=      5-min Rain = 0
KPG1 192240Z 16009KT 27/06 A2987 RMK A01 T02690057  RH  026%=      5-min Rain = 0
KPG1 192241Z 16008KT 27/06 A2987 RMK A01 T02690056  RH  026%=      5-min Rain = 0
KPG1 192242Z 17008KT 27/06 A2987 RMK A01 T02680057  RH  026%=      5-min Rain = 0
KPG1 192243Z 17006KT 27/06 A2987 RMK A01 T02670056  RH  026%=      5-min Rain = 0
KPG1 192244Z 16008KT 27/06 A2987 RMK A01 T02660056  RH  026%=      5-min Rain = 0
KPG1 192245Z 16008KT 27/06 A2987 RMK A01 T02650056  RH  026%=      5-min Rain = 0
KPG1 192246Z 17008KT 26/06 A2987 RMK A01 T02640056  RH  026%=      5-min Rain = 0
KPG1 192247Z 16008KT 26/06 A2987 RMK A01 T02640056  RH  026%=      5-min Rain = 0
KPG1 192248Z 15007KT 26/06 A2987 RMK A01 T02640056  RH  026%=      5-min Rain = 0
KPG1 192249Z 15007KT 26/06 A2987 RMK A01 T02640056  RH  026%=      5-min Rain = 0
KPG1 192250Z 16009KT 26/06 A2987 RMK A01 T02640056  RH  026%=      5-min Rain = 0
KPG1 192251Z 16007KT 26/06 A2987 RMK A01 T02640056  RH  026%=      5-min Rain = 0
KPG1 192252Z 17008KT 26/06 A2987 RMK A01 T02640056  RH  026%=      5-min Rain = 0
KPG1 192253Z 16007KT 26/06 A2987 RMK A01 T02640056  RH  026%=      5-min Rain = 0
KPG1 192254Z 17006KT 26/06 A2987 RMK A01 T02640056  RH  026%=      5-min Rain = 0
KPG1 192255Z 17007KT 26/06 A2987 RMK A01 T02640057  RH  027%=      5-min Rain = 0
KPG1 192256Z 17008KT 26/06 A2987 RMK A01 T02640057  RH  027%=      5-min Rain = 0
KPG1 192257Z 17008KT 26/06 A2987 RMK A01 T02630057  RH  027%=      5-min Rain = 0
KPG1 192258Z 16006KT 26/06 A2987 RMK A01 T02630057  RH  027%=      5-min Rain = 0
KPG1 192259Z 17008KT 26/06 A2987 RMK A01 T02630057  RH  027%=      5-min Rain = 0
KPG1 192300Z 17007KT 26/06 A2987 RMK A01 T02620057  RH  027%=      5-min Rain = 0
KPG1 192301Z 17006KT 26/06 A2987 RMK A01 T02620057  RH  027%=      5-min Rain = 0
KPG1 192302Z 17007KT 26/06 A2987 RMK A01 T02620058  RH  027%=      5-min Rain = 0
KPG1 192303Z 15005KT 26/06 A2987 RMK A01 T02620058  RH  027%=      5-min Rain = 0
KPG1 192304Z 15004KT 26/06 A2987 RMK A01 T02620058  RH  027%=      5-min Rain = 0
KPG1 192305Z 15006KT 26/06 A2987 RMK A01 T02620058  RH  027%=      5-min Rain = 0
KPG1 192306Z 15008KT 26/06 A2987 RMK A01 T02620057  RH  027%=      5-min Rain = 0
KPG1 192307Z 16007KT 26/06 A2987 RMK A01 T02610056  RH  027%=      5-min Rain = 0
KPG1 192308Z 17006KT 26/05 A2987 RMK A01 T02600054  RH  027%=      5-min Rain = 0
KPG1 192309Z 16005KT 26/05 A2987 RMK A01 T02600054  RH  027%=      5-min Rain = 0
KPG1 192310Z 17005KT 26/05 A2987 RMK A01 T02590053  RH  027%=      5-min Rain = 0
KPG1 192311Z 16005KT 26/05 A2987 RMK A01 T02590053  RH  027%=      5-min Rain = 0
KPG1 192312Z 16006KT 26/05 A2987 RMK A01 T02590054  RH  027%=      5-min Rain = 0
KPG1 192313Z 15006KT 26/05 A2987 RMK A01 T02580053  RH  027%=      5-min Rain = 0
KPG1 192314Z 15006KT 26/05 A2987 RMK A01 T02580052  RH  027%=      5-min Rain = 0
KPG1 192315Z 16005KT 26/05 A2987 RMK A01 T02570053  RH  027%=      5-min Rain = 0
KPG1 192316Z 16004KT 26/05 A2987 RMK A01 T02570053  RH  027%=      5-min Rain = 0
KPG1 192317Z 15004KT 26/05 A2987 RMK A01 T02560053  RH  027%=      5-min Rain = 0
KPG1 192318Z 16005KT 26/05 A2987 RMK A01 T02560053  RH  027%=      5-min Rain = 0
KPG1 192319Z 15004KT 26/05 A2986 RMK A01 T02560053  RH  027%=      5-min Rain = 0
KPG1 192320Z 14005KT 26/05 A2986 RMK A01 T02550053  RH  027%=      5-min Rain = 0
KPG1 192321Z 15004KT 26/05 A2986 RMK A01 T02550053  RH  027%=      5-min Rain = 0
KPG1 192322Z 15004KT 25/05 A2986 RMK A01 T02540053  RH  027%=      5-min Rain = 0
KPG1 192323Z 15004KT 25/05 A2986 RMK A01 T02540053  RH  027%=      5-min Rain = 0
KPG1 192324Z 14004KT 25/05 A2986 RMK A01 T02540053  RH  027%=      5-min Rain = 0
KPG1 192325Z 13003KT 25/05 A2986 RMK A01 T02540053  RH  027%=      5-min Rain = 0
KPG1 192326Z 14003KT 25/05 A2987 RMK A01 T02540053  RH  027%=      5-min Rain = 0
KPG1 192327Z 14003KT 25/05 A2987 RMK A01 T02530053  RH  028%=      5-min Rain = 0
KPG1 192328Z 15003KT 25/05 A2987 RMK A01 T02530053  RH  028%=      5-min Rain = 0
KPG1 192329Z 14003KT 25/05 A2987 RMK A01 T02520053  RH  028%=      5-min Rain = 0
KPG1 192330Z 13003KT 25/05 A2987 RMK A01 T02520053  RH  028%=      5-min Rain = 0
KPG1 192331Z 14003KT 25/05 A2987 RMK A01 T02520053  RH  028%=      5-min Rain = 0
KPG1 192332Z 13002KT 25/05 A2987 RMK A01 T02510053  RH  028%=      5-min Rain = 0
KPG1 192333Z 13003KT 25/05 A2987 RMK A01 T02510054  RH  028%=      5-min Rain = 0
KPG1 192334Z 14003KT 25/05 A2987 RMK A01 T02500054  RH  028%=      5-min Rain = 0
KPG1 192335Z 13003KT 25/05 A2987 RMK A01 T02500054  RH  028%=      5-min Rain = 0
KPG1 192336Z 12003KT 25/05 A2987 RMK A01 T02490054  RH  028%=      5-min Rain = 0
KPG1 192337Z 12002KT 25/06 A2987 RMK A01 T02490055  RH  029%=      5-min Rain = 0
KPG1 192338Z 12002KT 25/05 A2987 RMK A01 T02480054  RH  029%=      5-min Rain = 0
KPG1 192339Z 13003KT 25/05 A2987 RMK A01 T02480054  RH  029%=      5-min Rain = 0
KPG1 192340Z 12002KT 25/06 A2987 RMK A01 T02470055  RH  029%=      5-min Rain = 0
KPG1 192341Z 11002KT 25/06 A2987 RMK A01 T02460055  RH  029%=      5-min Rain = 0
KPG1 192342Z 14003KT 25/06 A2987 RMK A01 T02460055  RH  029%=      5-min Rain = 0
KPG1 192343Z 11002KT 25/05 A2987 RMK A01 T02450054  RH  029%=      5-min Rain = 0
KPG1 192344Z 12003KT 25/05 A2987 RMK A01 T02450054  RH  029%=      5-min Rain = 0
KPG1 192345Z 13003KT 25/05 A2987 RMK A01 T02450054  RH  029%=      5-min Rain = 0
KPG1 192346Z 13003KT 25/05 A2987 RMK A01 T02460054  RH  029%=      5-min Rain = 0
KPG1 192347Z 13003KT 25/05 A2987 RMK A01 T02460054  RH  029%=      5-min Rain = 0
KPG1 192348Z 14004KT 25/05 A2987 RMK A01 T02470054  RH  029%=      5-min Rain = 0
KPG1 192349Z 13004KT 25/05 A2987 RMK A01 T02470054  RH  029%=      5-min Rain = 0
KPG1 192350Z 14002KT 25/05 A2987 RMK A01 T02470054  RH  029%=      5-min Rain = 0
KPG1 192351Z 15003KT 25/06 A2987 RMK A01 T02470055  RH  029%=      5-min Rain = 0
KPG1 192352Z 13003KT 25/06 A2987 RMK A01 T02460055  RH  029%=      5-min Rain = 0
KPG1 192353Z 14004KT 25/05 A2987 RMK A01 T02450054  RH  029%=      5-min Rain = 0
KPG1 192354Z 14004KT 25/05 A2987 RMK A01 T02450054  RH  029%=      5-min Rain = 0
KPG1 192355Z 12002KT 25/05 A2987 RMK A01 T02450054  RH  029%=      5-min Rain = 0
KPG1 192356Z 11003KT 25/05 A2987 RMK A01 T02450054  RH  029%=      5-min Rain = 0
KPG1 192357Z 12004KT 25/05 A2987 RMK A01 T02450054  RH  029%=      5-min Rain = 0
KPG1 192358Z 11004KT 25/05 A2987 RMK A01 T02450054  RH  029%=      5-min Rain = 0
KPG1 192359Z 13004KT 24/05 A2987 RMK A01 T02440054  RH  029%=      5-min Rain = 0
KPG1 200000Z 11004KT 24/05 A2987 RMK A01 T02440053  RH  029%=      5-min Rain = 0
KPG1 200001Z 11003KT 24/05 A2987 RMK A01 T02440053  RH  029%=      5-min Rain = 0
KPG1 200002Z 13002KT 24/05 A2987 RMK A01 T02440053  RH  029%=      5-min Rain = 0
KPG1 200003Z 11002KT 24/05 A2987 RMK A01 T02430053  RH  029%=      5-min Rain = 0
KPG1 200004Z 11003KT 24/05 A2987 RMK A01 T02430053  RH  029%=      5-min Rain = 0
KPG1 200005Z 11003KT 24/05 A2987 RMK A01 T02420052  RH  029%=      5-min Rain = 0
KPG1 200006Z 11002KT 24/05 A2987 RMK A01 T02420052  RH  029%=      5-min Rain = 0
KPG1 200007Z 13003KT 24/05 A2987 RMK A01 T02410052  RH  029%=      5-min Rain = 0
KPG1 200008Z 13005KT 24/05 A2987 RMK A01 T02410051  RH  029%=      5-min Rain = 0
KPG1 200009Z 13004KT 24/05 A2987 RMK A01 T02420051  RH  029%=      5-min Rain = 0
KPG1 200010Z 11005KT 24/05 A2987 RMK A01 T02430051  RH  029%=      5-min Rain = 0
KPG1 200011Z 11004KT 24/05 A2987 RMK A01 T02430050  RH  029%=      5-min Rain = 0
KPG1 200012Z 11005KT 24/05 A2987 RMK A01 T02440050  RH  029%=      5-min Rain = 0
KPG1 200013Z 11006KT 25/05 A2987 RMK A01 T02450049  RH  028%=      5-min Rain = 0
KPG1 200014Z 12004KT 25/05 A2987 RMK A01 T02460049  RH  028%=      5-min Rain = 0
KPG1 200015Z 12003KT 25/05 A2987 RMK A01 T02460049  RH  028%=      5-min Rain = 0
KPG1 200016Z 11003KT 25/05 A2987 RMK A01 T02450049  RH  028%=      5-min Rain = 0
KPG1 200017Z 11003KT 25/05 A2987 RMK A01 T02450048  RH  028%=      5-min Rain = 0
KPG1 200018Z 12003KT 24/05 A2987 RMK A01 T02440048  RH  028%=      5-min Rain = 0
KPG1 200019Z 12003KT 24/05 A2987 RMK A01 T02440047  RH  028%=      5-min Rain = 0
KPG1 200020Z 11003KT 24/05 A2986 RMK A01 T02440047  RH  028%=      5-min Rain = 0
KPG1 200021Z 11004KT 24/05 A2986 RMK A01 T02440047  RH  028%=      5-min Rain = 0
KPG1 200022Z 11004KT 24/05 A2986 RMK A01 T02430046  RH  028%=      5-min Rain = 0
KPG1 200023Z 11004KT 24/05 A2986 RMK A01 T02440046  RH  028%=      5-min Rain = 0
KPG1 200024Z 11004KT 24/05 A2987 RMK A01 T02440045  RH  028%=      5-min Rain = 0
KPG1 200025Z 11004KT 25/05 A2987 RMK A01 T02450045  RH  027%=      5-min Rain = 0
KPG1 200026Z 12004KT 25/05 A2987 RMK A01 T02450045  RH  027%=      5-min Rain = 0
KPG1 200027Z 12003KT 25/04 A2987 RMK A01 T02450044  RH  027%=      5-min Rain = 0
KPG1 200028Z 12004KT 25/04 A2987 RMK A01 T02450044  RH  027%=      5-min Rain = 0
KPG1 200029Z 13004KT 25/04 A2987 RMK A01 T02460044  RH  027%=      5-min Rain = 0
KPG1 200030Z 13003KT 25/04 A2987 RMK A01 T02460044  RH  027%=      5-min Rain = 0
KPG1 200031Z 13003KT 25/04 A2986 RMK A01 T02460044  RH  027%=      5-min Rain = 0
KPG1 200032Z 12003KT 25/04 A2986 RMK A01 T02460044  RH  027%=      5-min Rain = 0
KPG1 200033Z 12002KT 25/04 A2986 RMK A01 T02460044  RH  027%=      5-min Rain = 0
KPG1 200034Z 13003KT 25/04 A2986 RMK A01 T02450044  RH  027%=      5-min Rain = 0
KPG1 200035Z 13004KT 25/04 A2987 RMK A01 T02450044  RH  027%=      5-min Rain = 0
KPG1 200036Z 13004KT 25/04 A2987 RMK A01 T02450044  RH  027%=      5-min Rain = 0
KPG1 200037Z 12002KT 25/05 A2987 RMK A01 T02450045  RH  027%=      5-min Rain = 0
KPG1 200038Z 12002KT 24/05 A2987 RMK A01 T02440045  RH  028%=      5-min Rain = 0
KPG1 200039Z 12003KT 24/05 A2987 RMK A01 T02430045  RH  028%=      5-min Rain = 0
KPG1 200040Z 12001KT 24/05 A2987 RMK A01 T02420045  RH  028%=      5-min Rain = 0
KPG1 200041Z 12001KT 24/05 A2987 RMK A01 T02410045  RH  028%=      5-min Rain = 0
KPG1 200042Z 11002KT 24/05 A2987 RMK A01 T02400045  RH  028%=      5-min Rain = 0
KPG1 200043Z 11001KT 24/05 A2987 RMK A01 T02400045  RH  028%=      5-min Rain = 0
KPG1 200044Z 12001KT 24/04 A2987 RMK A01 T02390044  RH  028%=      5-min Rain = 0
KPG1 200045Z 10001KT 24/05 A2987 RMK A01 T02390045  RH  028%=      5-min Rain = 0
KPG1 200046Z 10001KT 24/05 A2987 RMK A01 T02380045  RH  029%=      5-min Rain = 0
KPG1 200047Z 11002KT 24/05 A2987 RMK A01 T02380045  RH  029%=      5-min Rain = 0
KPG1 200048Z 12002KT 24/05 A2987 RMK A01 T02380045  RH  029%=      5-min Rain = 0
KPG1 200049Z 08001KT 24/05 A2987 RMK A01 T02380045  RH  029%=      5-min Rain = 0
KPG1 200050Z 10002KT 24/05 A2987 RMK A01 T02380045  RH  029%=      5-min Rain = 0
KPG1 200051Z 06001KT 24/05 A2987 RMK A01 T02380045  RH  029%=      5-min Rain = 0
KPG1 200052Z 09003KT 24/05 A2987 RMK A01 T02370045  RH  029%=      5-min Rain = 0
KPG1 200053Z 10003KT 24/05 A2987 RMK A01 T02370046  RH  029%=      5-min Rain = 0
KPG1 200054Z 10002KT 24/05 A2987 RMK A01 T02370046  RH  029%=      5-min Rain = 0
KPG1 200055Z 08002KT 24/05 A2987 RMK A01 T02370046  RH  029%=      5-min Rain = 0
KPG1 200056Z 08002KT 24/05 A2987 RMK A01 T02370046  RH  029%=      5-min Rain = 0
KPG1 200057Z 06001KT 24/05 A2987 RMK A01 T02370047  RH  029%=      5-min Rain = 0
KPG1 200058Z 07001KT 24/05 A2987 RMK A01 T02370047  RH  029%=      5-min Rain = 0
KPG1 200059Z 07001KT 24/05 A2987 RMK A01 T02370048  RH  029%=      5-min Rain = 0
KPG1 200100Z 07001KT 24/05 A2987 RMK A01 T02370048  RH  029%=      5-min Rain = 0
KPG1 200101Z 11001KT 24/05 A2987 RMK A01 T02370049  RH  030%=      5-min Rain = 0
KPG1 200102Z 12001KT 24/05 A2987 RMK A01 T02360048  RH  030%=      5-min Rain = 0
KPG1 200103Z 12000KT 24/05 A2987 RMK A01 T02360048  RH  030%=      5-min Rain = 0
KPG1 200104Z 09001KT 24/05 A2987 RMK A01 T02370049  RH  030%=      5-min Rain = 0
KPG1 200105Z 05001KT 24/05 A2987 RMK A01 T02360048  RH  029%=      5-min Rain = 0
KPG1 200106Z 04001KT 24/05 A2987 RMK A01 T02370049  RH  030%=      5-min Rain = 0
KPG1 200107Z 05001KT 24/05 A2987 RMK A01 T02360050  RH  030%=      5-min Rain = 0
KPG1 200108Z 03002KT 23/05 A2987 RMK A01 T02330049  RH  030%=      5-min Rain = 0
KPG1 200109Z 02003KT 23/05 A2987 RMK A01 T02280048  RH  031%=      5-min Rain = 0
KPG1 200110Z 01004KT 23/05 A2987 RMK A01 T02250048  RH  032%=      5-min Rain = 0
KPG1 200111Z 36005KT 22/05 A2987 RMK A01 T02240049  RH  032%=      5-min Rain = 0
KPG1 200112Z 36005KT 22/05 A2987 RMK A01 T02240049  RH  032%=      5-min Rain = 0
KPG1 200113Z 01005KT 22/05 A2987 RMK A01 T02230050  RH  032%=      5-min Rain = 0
KPG1 200114Z 03006KT 23/05 A2987 RMK A01 T02250051  RH  032%=      5-min Rain = 0
KPG1 200115Z 03006KT 23/05 A2987 RMK A01 T02250051  RH  032%=      5-min Rain = 0
KPG1 200116Z 05008KT 23/05 A2988 RMK A01 T02250051  RH  032%=      5-min Rain = 0
KPG1 200117Z 04010KT 23/05 A2988 RMK A01 T02260052  RH  032%=      5-min Rain = 0
KPG1 200118Z 04012KT 23/05 A2988 RMK A01 T02260053  RH  032%=      5-min Rain = 0
KPG1 200119Z 03011KT 23/05 A2988 RMK A01 T02260054  RH  033%=      5-min Rain = 0
KPG1 200120Z 03011KT 22/06 A2988 RMK A01 T02240056  RH  034%=      5-min Rain = 0
KPG1 200121Z 02011KT 22/06 A2988 RMK A01 T02200057  RH  035%=      5-min Rain = 0
KPG1 200122Z 01010KT 22/06 A2988 RMK A01 T02180058  RH  035%=      5-min Rain = 0
KPG1 200123Z 01010KT 22/06 A2988 RMK A01 T02170058  RH  036%=      5-min Rain = 0
KPG1 200124Z 00010KT 22/06 A2988 RMK A01 T02160059  RH  036%=      5-min Rain = 0
KPG1 200125Z 36010KT 22/06 A2988 RMK A01 T02150059  RH  036%=      5-min Rain = 0
KPG1 200126Z 35010KT 21/06 A2988 RMK A01 T02140061  RH  037%=      5-min Rain = 0
KPG1 200127Z 35010KT 21/06 A2988 RMK A01 T02130061  RH  037%=      5-min Rain = 0
KPG1 200128Z 35011KT 21/06 A2988 RMK A01 T02140061  RH  037%=      5-min Rain = 0
KPG1 200129Z 35012KT 21/06 A2988 RMK A01 T02130062  RH  037%=      5-min Rain = 0
KPG1 200130Z 00012KT 21/06 A2988 RMK A01 T02130062  RH  037%=      5-min Rain = 0
KPG1 200131Z 00012KT 21/06 A2988 RMK A01 T02130062  RH  038%=      5-min Rain = 0
KPG1 200132Z 00012KT 21/06 A2988 RMK A01 T02130062  RH  038%=      5-min Rain = 0
KPG1 200133Z 00012KT 21/06 A2988 RMK A01 T02130062  RH  038%=      5-min Rain = 0
KPG1 200134Z 00012KT 21/06 A2988 RMK A01 T02130062  RH  038%=      5-min Rain = 0
KPG1 200135Z 01012KT 21/06 A2988 RMK A01 T02130063  RH  038%=      5-min Rain = 0
KPG1 200136Z 00011KT 21/06 A2988 RMK A01 T02120063  RH  038%=      5-min Rain = 0
KPG1 200137Z 00011KT 21/06 A2988 RMK A01 T02120063  RH  038%=      5-min Rain = 0
KPG1 200138Z 01011KT 21/06 A2988 RMK A01 T02110064  RH  038%=      5-min Rain = 0
KPG1 200139Z 01011KT 21/06 A2988 RMK A01 T02110064  RH  038%=      5-min Rain = 0
KPG1 200140Z 02010KT 21/06 A2988 RMK A01 T02110064  RH  038%=      5-min Rain = 0
KPG1 200141Z 01011KT 21/06 A2988 RMK A01 T02100064  RH  038%=      5-min Rain = 0
KPG1 200142Z 02011KT 21/06 A2988 RMK A01 T02100064  RH  039%=      5-min Rain = 0
KPG1 200143Z 01011KT 21/06 A2988 RMK A01 T02100064  RH  039%=      5-min Rain = 0
KPG1 200144Z 02010KT 21/06 A2988 RMK A01 T02100064  RH  039%=      5-min Rain = 0
KPG1 200145Z 01010KT 21/06 A2988 RMK A01 T02100064  RH  039%=      5-min Rain = 0
KPG1 200146Z 02010KT 21/06 A2988 RMK A01 T02090064  RH  039%=      5-min Rain = 0
KPG1 200147Z 02011KT 21/06 A2988 RMK A01 T02080064  RH  039%=      5-min Rain = 0
KPG1 200148Z 02011KT 21/06 A2988 RMK A01 T02080064  RH  039%=      5-min Rain = 0
KPG1 200149Z 02011KT 21/06 A2988 RMK A01 T02080064  RH  039%=      5-min Rain = 0
KPG1 200150Z 01011KT 21/06 A2988 RMK A01 T02070064  RH  039%=      5-min Rain = 0
KPG1 200151Z 02011KT 21/06 A2988 RMK A01 T02070064  RH  039%=      5-min Rain = 0
KPG1 200152Z 02011KT 21/06 A2988 RMK A01 T02070064  RH  039%=      5-min Rain = 0
KPG1 200153Z 02011KT 21/06 A2988 RMK A01 T02070064  RH  039%=      5-min Rain = 0
KPG1 200154Z 01011KT 21/06 A2988 RMK A01 T02070064  RH  039%=      5-min Rain = 0
KPG1 200155Z 02012KT 21/07 A2988 RMK A01 T02070065  RH  040%=      5-min Rain = 0
KPG1 200156Z 02011KT 21/07 A2988 RMK A01 T02070065  RH  040%=      5-min Rain = 0
KPG1 200157Z 02012KT 21/07 A2988 RMK A01 T02080065  RH  039%=      5-min Rain = 0
KPG1 200158Z 02012KT 21/07 A2988 RMK A01 T02080065  RH  040%=      5-min Rain = 0
KPG1 200159Z 02011KT 21/07 A2988 RMK A01 T02070065  RH  040%=      5-min Rain = 0
KPG1 200200Z 02011KT 21/07 A2988 RMK A01 T02070065  RH  040%=      5-min Rain = 0
KPG1 200201Z 02011KT 21/07 A2988 RMK A01 T02070065  RH  040%=      5-min Rain = 0
KPG1 200202Z 02011KT 21/07 A2988 RMK A01 T02060065  RH  040%=      5-min Rain = 0
KPG1 200203Z 02011KT 21/07 A2989 RMK A01 T02060065  RH  040%=      5-min Rain = 0
KPG1 200204Z 02011KT 21/07 A2989 RMK A01 T02060065  RH  040%=      5-min Rain = 0
KPG1 200205Z 02011KT 21/07 A2989 RMK A01 T02060065  RH  040%=      5-min Rain = 0
KPG1 200206Z 02011KT 21/07 A2989 RMK A01 T02060065  RH  040%=      5-min Rain = 0
KPG1 200207Z 02011KT 21/07 A2989 RMK A01 T02060065  RH  040%=      5-min Rain = 0
KPG1 200208Z 02010KT 21/07 A2989 RMK A01 T02070065  RH  040%=      5-min Rain = 0
KPG1 200209Z 02011KT 21/07 A2989 RMK A01 T02070065  RH  040%=      5-min Rain = 0
KPG1 200210Z 02010KT 21/07 A2989 RMK A01 T02070065  RH  040%=      5-min Rain = 0
KPG1 200211Z 02009KT 21/07 A2989 RMK A01 T02070065  RH  040%=      5-min Rain = 0
KPG1 200212Z 02012KT 21/07 A2989 RMK A01 T02070066  RH  040%=      5-min Rain = 0
KPG1 200213Z 02012KT 21/07 A2989 RMK A01 T02070066  RH  040%=      5-min Rain = 0
KPG1 200214Z 02011KT 21/07 A2989 RMK A01 T02070066  RH  040%=      5-min Rain = 0
KPG1 200215Z 02012KT 21/07 A2989 RMK A01 T02070066  RH  040%=      5-min Rain = 0
KPG1 200216Z 01012KT 21/07 A2989 RMK A01 T02070066  RH  040%=      5-min Rain = 0
KPG1 200217Z 02011KT 21/07 A2989 RMK A01 T02070066  RH  040%=      5-min Rain = 0
KPG1 200218Z 02011KT 21/07 A2989 RMK A01 T02070066  RH  040%=      5-min Rain = 0
KPG1 200219Z 02013KT 21/07 A2989 RMK A01 T02070066  RH  040%=      5-min Rain = 0
KPG1 200220Z 02013KT 21/07 A2989 RMK A01 T02070067  RH  040%=      5-min Rain = 0
KPG1 200221Z 03013KT 21/07 A2989 RMK A01 T02080068  RH  040%=      5-min Rain = 0
KPG1 200222Z 02012KT 21/07 A2989 RMK A01 T02080067  RH  040%=      5-min Rain = 0
KPG1 200223Z 02012KT 21/07 A2989 RMK A01 T02070067  RH  040%=      5-min Rain = 0
KPG1 200224Z 02013KT 21/07 A2989 RMK A01 T02070067  RH  040%=      5-min Rain = 0
KPG1 200225Z 03012KT 21/07 A2989 RMK A01 T02070068  RH  040%=      5-min Rain = 0
KPG1 200226Z 03011KT 21/07 A2989 RMK A01 T02070067  RH  040%=      5-min Rain = 0
KPG1 200227Z 03011KT 21/07 A2989 RMK A01 T02050067  RH  041%=      5-min Rain = 0
KPG1 200228Z 02011KT 20/07 A2989 RMK A01 T02030067  RH  041%=      5-min Rain = 0
KPG1 200229Z 02013KT 20/07 A2989 RMK A01 T02020067  RH  041%=      5-min Rain = 0
KPG1 200230Z 03011KT 20/07 A2989 RMK A01 T02020067  RH  042%=      5-min Rain = 0
KPG1 200231Z 03012KT 20/07 A2989 RMK A01 T02030067  RH  041%=      5-min Rain = 0
KPG1 200232Z 02012KT 20/07 A2989 RMK A01 T02020067  RH  041%=      5-min Rain = 0
KPG1 200233Z 03011KT 20/07 A2989 RMK A01 T02010067  RH  042%=      5-min Rain = 0
KPG1 200234Z 02011KT 20/07 A2989 RMK A01 T02010067  RH  042%=      5-min Rain = 0
KPG1 200235Z 03010KT 20/07 A2989 RMK A01 T02000067  RH  042%=      5-min Rain = 0
KPG1 200236Z 02010KT 20/07 A2989 RMK A01 T02000067  RH  042%=      5-min Rain = 0
KPG1 200237Z 02010KT 20/07 A2989 RMK A01 T01990067  RH  042%=      5-min Rain = 0
KPG1 200238Z 02010KT 20/07 A2989 RMK A01 T01990067  RH  042%=      5-min Rain = 0
KPG1 200239Z 02010KT 20/07 A2989 RMK A01 T02000068  RH  042%=      5-min Rain = 0
KPG1 200240Z 02011KT 20/07 A2989 RMK A01 T02000068  RH  042%=      5-min Rain = 0
KPG1 200241Z 03012KT 20/07 A2989 RMK A01 T02000068  RH  042%=      5-min Rain = 0
KPG1 200242Z 03012KT 20/07 A2989 RMK A01 T01990068  RH  042%=      5-min Rain = 0
KPG1 200243Z 03013KT 20/07 A2989 RMK A01 T01990067  RH  042%=      5-min Rain = 0
KPG1 200244Z 02012KT 20/07 A2989 RMK A01 T01990068  RH  042%=      5-min Rain = 0
KPG1 200245Z 02011KT 20/07 A2989 RMK A01 T01990068  RH  042%=      5-min Rain = 0
KPG1 200246Z 02011KT 20/07 A2989 RMK A01 T01990068  RH  043%=      5-min Rain = 0
KPG1 200247Z 02011KT 20/07 A2989 RMK A01 T01990069  RH  043%=      5-min Rain = 0
KPG1 200248Z 02010KT 20/07 A2989 RMK A01 T01990069  RH  043%=      5-min Rain = 0
KPG1 200249Z 02012KT 20/07 A2989 RMK A01 T02000070  RH  043%=      5-min Rain = 0
KPG1 200250Z 02012KT 20/07 A2989 RMK A01 T02020072  RH  043%=      5-min Rain = 0
KPG1 200251Z 02011KT 20/07 A2989 RMK A01 T02030072  RH  043%=      5-min Rain = 0
KPG1 200252Z 02012KT 20/07 A2989 RMK A01 T02030072  RH  043%=      5-min Rain = 0
KPG1 200253Z 02012KT 20/07 A2989 RMK A01 T02040071  RH  042%=      5-min Rain = 0
KPG1 200254Z 02012KT 20/07 A2989 RMK A01 T02030071  RH  042%=      5-min Rain = 0
KPG1 200255Z 03011KT 20/07 A2989 RMK A01 T02030072  RH  042%=      5-min Rain = 0
KPG1 200256Z 02011KT 20/07 A2989 RMK A01 T02020071  RH  043%=      5-min Rain = 0
KPG1 200257Z 02012KT 20/07 A2989 RMK A01 T02010072  RH  043%=      5-min Rain = 0
KPG1 200258Z 02011KT 20/07 A2989 RMK A01 T02010072  RH  043%=      5-min Rain = 0
KPG1 200259Z 02012KT 20/07 A2989 RMK A01 T02010072  RH  043%=      5-min Rain = 0
KPG1 200300Z 03012KT 20/07 A2989 RMK A01 T02020074  RH  043%=      5-min Rain = 0
KPG1 200301Z 03011KT 20/07 A2989 RMK A01 T02020074  RH  043%=      5-min Rain = 0
KPG1 200302Z 03011KT 20/07 A2989 RMK A01 T02020073  RH  043%=      5-min Rain = 0
KPG1 200303Z 03012KT 20/07 A2989 RMK A01 T02010073  RH  043%=      5-min Rain = 0
KPG1 200304Z 03012KT 20/07 A2989 RMK A01 T02000072  RH  044%=      5-min Rain = 0
KPG1 200305Z 02012KT 20/07 A2989 RMK A01 T01990072  RH  044%=      5-min Rain = 0
KPG1 200306Z 02011KT 20/07 A2989 RMK A01 T01980072  RH  044%=      5-min Rain = 0
KPG1 200307Z 02012KT 20/07 A2989 RMK A01 T01980073  RH  044%=      5-min Rain = 0
KPG1 200308Z 02012KT 20/08 A2989 RMK A01 T01990075  RH  044%=      5-min Rain = 0
KPG1 200309Z 02012KT 20/08 A2989 RMK A01 T02010076  RH  044%=      5-min Rain = 0
KPG1 200310Z 02012KT 20/08 A2989 RMK A01 T02020076  RH  044%=      5-min Rain = 0
KPG1 200311Z 02013KT 20/08 A2989 RMK A01 T02020076  RH  044%=      5-min Rain = 0
KPG1 200312Z 02012KT 20/08 A2989 RMK A01 T02020076  RH  044%=      5-min Rain = 0
KPG1 200313Z 02010KT 20/08 A2989 RMK A01 T02020076  RH  044%=      5-min Rain = 0
KPG1 200314Z 02013KT 20/08 A2989 RMK A01 T02020076  RH  044%=      5-min Rain = 0
KPG1 200315Z 03011KT 20/08 A2989 RMK A01 T02010076  RH  044%=      5-min Rain = 0
KPG1 200316Z 03012KT 20/08 A2989 RMK A01 T02020076  RH  044%=      5-min Rain = 0
KPG1 200317Z 02011KT 20/08 A2989 RMK A01 T02010076  RH  044%=      5-min Rain = 0
KPG1 200318Z 03011KT 20/08 A2989 RMK A01 T02010076  RH  044%=      5-min Rain = 0
KPG1 200319Z 03012KT 20/08 A2989 RMK A01 T02010076  RH  045%=      5-min Rain = 0
KPG1 200320Z 02011KT 20/08 A2989 RMK A01 T02010076  RH  044%=      5-min Rain = 0
KPG1 200321Z 02011KT 20/08 A2989 RMK A01 T02000076  RH  045%=      5-min Rain = 0
KPG1 200322Z 02011KT 20/08 A2989 RMK A01 T01980076  RH  045%=      5-min Rain = 0
KPG1 200323Z 02012KT 20/08 A2989 RMK A01 T01990076  RH  045%=      5-min Rain = 0
KPG1 200324Z 02013KT 20/08 A2989 RMK A01 T02000077  RH  045%=      5-min Rain = 0
KPG1 200325Z 03012KT 20/08 A299 RMK A01 T02020078  RH  045%=      5-min Rain = 0
KPG1 200326Z 03011KT 20/08 A299 RMK A01 T02020078  RH  045%=      5-min Rain = 0
KPG1 200327Z 02011KT 20/08 A299 RMK A01 T02020077  RH  045%=      5-min Rain = 0
KPG1 200328Z 03010KT 20/08 A299 RMK A01 T02020077  RH  045%=      5-min Rain = 0
KPG1 200329Z 03010KT 20/08 A2989 RMK A01 T02000077  RH  045%=      5-min Rain = 0
KPG1 200330Z 03011KT 20/08 A2989 RMK A01 T01980076  RH  045%=      5-min Rain = 0
KPG1 200331Z 03011KT 20/08 A2989 RMK A01 T01970076  RH  046%=      5-min Rain = 0
KPG1 200332Z 04011KT 20/08 A2989 RMK A01 T01960077  RH  046%=      5-min Rain = 0
KPG1 200333Z 03011KT 20/08 A2989 RMK A01 T01950077  RH  046%=      5-min Rain = 0
KPG1 200334Z 03010KT 20/08 A299 RMK A01 T01950077  RH  046%=      5-min Rain = 0
KPG1 200335Z 03009KT 20/08 A299 RMK A01 T01960078  RH  046%=      5-min Rain = 0
KPG1 200336Z 02012KT 20/08 A299 RMK A01 T01960077  RH  046%=      5-min Rain = 0
KPG1 200337Z 02012KT 20/08 A299 RMK A01 T01980079  RH  046%=      5-min Rain = 0
KPG1 200338Z 02012KT 20/08 A299 RMK A01 T01990079  RH  046%=      5-min Rain = 0
KPG1 200339Z 02013KT 20/08 A299 RMK A01 T02000080  RH  046%=      5-min Rain = 0
KPG1 200340Z 02013KT 20/08 A299 RMK A01 T02010080  RH  046%=      5-min Rain = 0
KPG1 200341Z 02013KT 20/08 A299 RMK A01 T02010080  RH  046%=      5-min Rain = 0
KPG1 200342Z 03011KT 20/08 A299 RMK A01 T02010080  RH  046%=      5-min Rain = 0
KPG1 200343Z 03011KT 20/08 A2989 RMK A01 T02010080  RH  046%=      5-min Rain = 0
KPG1 200344Z 03012KT 20/08 A2989 RMK A01 T01990079  RH  046%=      5-min Rain = 0
KPG1 200345Z 03012KT 20/08 A2989 RMK A01 T01990080  RH  046%=      5-min Rain = 0
KPG1 200346Z 02012KT 20/08 A2989 RMK A01 T01980079  RH  046%=      5-min Rain = 0
KPG1 200347Z 03012KT 20/08 A2989 RMK A01 T01980079  RH  046%=      5-min Rain = 0
KPG1 200348Z 03013KT 20/08 A2989 RMK A01 T01970079  RH  046%=      5-min Rain = 0
KPG1 200349Z 03011KT 20/08 A2989 RMK A01 T01980079  RH  046%=      5-min Rain = 0
KPG1 200350Z 03011KT 20/08 A2989 RMK A01 T01980079  RH  046%=      5-min Rain = 0
KPG1 200351Z 03011KT 20/08 A2989 RMK A01 T01980079  RH  046%=      5-min Rain = 0
KPG1 200352Z 03010KT 20/08 A2989 RMK A01 T01980080  RH  046%=      5-min Rain = 0
KPG1 200353Z 03010KT 20/08 A2989 RMK A01 T01990080  RH  046%=      5-min Rain = 0
KPG1 200354Z 03011KT 20/08 A2989 RMK A01 T01990079  RH  046%=      5-min Rain = 0
KPG1 200355Z 03010KT 20/08 A2989 RMK A01 T01980079  RH  046%=      5-min Rain = 0
KPG1 200356Z 03010KT 20/08 A2989 RMK A01 T01970079  RH  046%=      5-min Rain = 0
KPG1 200357Z 03010KT 20/08 A2989 RMK A01 T01960079  RH  047%=      5-min Rain = 0
KPG1 200358Z 03010KT 20/08 A2989 RMK A01 T01950079  RH  047%=      5-min Rain = 0
KPG1 200359Z 03011KT 20/08 A2989 RMK A01 T01950080  RH  047%=      5-min Rain = 0
KPG1 200400Z 04011KT 20/08 A299 RMK A01 T01950080  RH  047%=      5-min Rain = 0
KPG1 200401Z 04010KT 19/08 A2989 RMK A01 T01940080  RH  047%=      5-min Rain = 0
KPG1 200402Z 04011KT 20/08 A2989 RMK A01 T01950080  RH  047%=      5-min Rain = 0
KPG1 200403Z 04011KT 20/08 A2989 RMK A01 T01950080  RH  047%=      5-min Rain = 0
KPG1 200404Z 04012KT 20/08 A2989 RMK A01 T01960080  RH  047%=      5-min Rain = 0
KPG1 200405Z 04012KT 20/08 A2989 RMK A01 T01960080  RH  047%=      5-min Rain = 0
KPG1 200406Z 03011KT 20/08 A2989 RMK A01 T01960081  RH  047%=      5-min Rain = 0
KPG1 200407Z 04011KT 20/08 A2989 RMK A01 T01960080  RH  047%=      5-min Rain = 0
KPG1 200408Z 04010KT 20/08 A2989 RMK A01 T01960081  RH  047%=      5-min Rain = 0
KPG1 200409Z 04011KT 20/08 A2989 RMK A01 T01960080  RH  047%=      5-min Rain = 0
KPG1 200410Z 04011KT 20/08 A2989 RMK A01 T01960080  RH  047%=      5-min Rain = 0
KPG1 200411Z 04010KT 20/08 A2989 RMK A01 T01950080  RH  047%=      5-min Rain = 0
KPG1 200412Z 04011KT 20/08 A2989 RMK A01 T01950080  RH  047%=      5-min Rain = 0
KPG1 200413Z 04011KT 19/08 A2989 RMK A01 T01940080  RH  048%=      5-min Rain = 0
KPG1 200414Z 04011KT 20/08 A2989 RMK A01 T01950081  RH  048%=      5-min Rain = 0
KPG1 200415Z 04010KT 19/08 A2989 RMK A01 T01940081  RH  048%=      5-min Rain = 0
KPG1 200416Z 04010KT 20/08 A2989 RMK A01 T01950081  RH  048%=      5-min Rain = 0
KPG1 200417Z 04010KT 19/08 A2989 RMK A01 T01940081  RH  048%=      5-min Rain = 0
KPG1 200418Z 04010KT 19/08 A2989 RMK A01 T01940081  RH  048%=      5-min Rain = 0
KPG1 200419Z 04011KT 19/08 A2989 RMK A01 T01940080  RH  048%=      5-min Rain = 0
KPG1 200420Z 04010KT 19/08 A2989 RMK A01 T01940080  RH  048%=      5-min Rain = 0
KPG1 200421Z 04011KT 20/08 A2989 RMK A01 T01950080  RH  048%=      5-min Rain = 0
KPG1 200422Z 04012KT 19/08 A2989 RMK A01 T01940081  RH  048%=      5-min Rain = 0
KPG1 200423Z 04012KT 20/08 A2989 RMK A01 T01950081  RH  048%=      5-min Rain = 0
KPG1 200424Z 04012KT 20/08 A2989 RMK A01 T01950081  RH  048%=      5-min Rain = 0
KPG1 200425Z 04011KT 19/08 A2989 RMK A01 T01940081  RH  048%=      5-min Rain = 0
KPG1 200426Z 04012KT 19/08 A2989 RMK A01 T01940081  RH  048%=      5-min Rain = 0
KPG1 200427Z 04012KT 20/08 A2989 RMK A01 T01950081  RH  048%=      5-min Rain = 0
KPG1 200428Z 04012KT 20/08 A2989 RMK A01 T01950081  RH  048%=      5-min Rain = 0
KPG1 200429Z 04012KT 20/08 A2989 RMK A01 T01950081  RH  048%=      5-min Rain = 0
KPG1 200430Z 04011KT 20/08 A2989 RMK A01 T01950081  RH  048%=      5-min Rain = 0
KPG1 200431Z 04011KT 20/08 A2989 RMK A01 T01950081  RH  048%=      5-min Rain = 0
KPG1 200432Z 05012KT 20/08 A2989 RMK A01 T01950082  RH  048%=      5-min Rain = 0
KPG1 200433Z 04012KT 20/08 A2989 RMK A01 T01950082  RH  048%=      5-min Rain = 0
KPG1 200434Z 04012KT 20/08 A2989 RMK A01 T01950082  RH  048%=      5-min Rain = 0
KPG1 200435Z 05012KT 20/08 A2989 RMK A01 T01950082  RH  048%=      5-min Rain = 0
KPG1 200436Z 05012KT 20/08 A2989 RMK A01 T01950082  RH  048%=      5-min Rain = 0
KPG1 200437Z 05013KT 20/08 A2989 RMK A01 T01950083  RH  048%=      5-min Rain = 0
KPG1 200438Z 05013KT 19/08 A2989 RMK A01 T01940083  RH  049%=      5-min Rain = 0
KPG1 200439Z 05012KT 20/08 A2989 RMK A01 T01950083  RH  048%=      5-min Rain = 0
KPG1 200440Z 05011KT 20/08 A2989 RMK A01 T01950083  RH  048%=      5-min Rain = 0
KPG1 200441Z 05011KT 20/08 A299 RMK A01 T01950084  RH  048%=      5-min Rain = 0
KPG1 200442Z 04010KT 20/08 A299 RMK A01 T01950084  RH  048%=      5-min Rain = 0
KPG1 200443Z 04010KT 20/08 A299 RMK A01 T01950083  RH  048%=      5-min Rain = 0
KPG1 200444Z 04010KT 19/08 A299 RMK A01 T01940083  RH  048%=      5-min Rain = 0
KPG1 200445Z 04010KT 19/08 A2989 RMK A01 T01940083  RH  049%=      5-min Rain = 0
KPG1 200446Z 03011KT 19/08 A2989 RMK A01 T01930082  RH  049%=      5-min Rain = 0
KPG1 200447Z 04012KT 19/08 A2989 RMK A01 T01910081  RH  049%=      5-min Rain = 0
KPG1 200448Z 04012KT 19/08 A2989 RMK A01 T01910082  RH  049%=      5-min Rain = 0
KPG1 200449Z 04011KT 19/08 A299 RMK A01 T01910082  RH  049%=      5-min Rain = 0
KPG1 200450Z 04011KT 19/08 A299 RMK A01 T01910082  RH  049%=      5-min Rain = 0
KPG1 200451Z 04011KT 19/08 A299 RMK A01 T01910082  RH  049%=      5-min Rain = 0
KPG1 200452Z 04011KT 19/08 A2989 RMK A01 T01910082  RH  049%=      5-min Rain = 0
KPG1 200453Z 04011KT 19/08 A2989 RMK A01 T01910082  RH  049%=      5-min Rain = 0
KPG1 200454Z 04010KT 19/08 A2989 RMK A01 T01910082  RH  049%=      5-min Rain = 0
KPG1 200455Z 05011KT 19/08 A2989 RMK A01 T01910082  RH  049%=      5-min Rain = 0
KPG1 200456Z 05011KT 19/08 A2989 RMK A01 T01910082  RH  049%=      5-min Rain = 0
KPG1 200457Z 05010KT 19/08 A2989 RMK A01 T01910082  RH  049%=      5-min Rain = 0
KPG1 200458Z 05010KT 19/08 A2989 RMK A01 T01920082  RH  049%=      5-min Rain = 0
KPG1 200459Z 05010KT 19/08 A2989 RMK A01 T01920082  RH  049%=      5-min Rain = 0
KPG1 200500Z 04010KT 19/08 A2989 RMK A01 T01920082  RH  049%=      5-min Rain = 0
KPG1 200501Z 04011KT 19/08 A2989 RMK A01 T01920082  RH  049%=      5-min Rain = 0
KPG1 200502Z 04011KT 19/08 A2989 RMK A01 T01920082  RH  049%=      5-min Rain = 0
KPG1 200503Z 04011KT 19/08 A2989 RMK A01 T01920082  RH  049%=      5-min Rain = 0
KPG1 200504Z 04010KT 19/08 A2989 RMK A01 T01920082  RH  049%=      5-min Rain = 0
KPG1 200505Z 04009KT 19/08 A299 RMK A01 T01920082  RH  049%=      5-min Rain = 0
KPG1 200506Z 03009KT 19/08 A299 RMK A01 T01920081  RH  049%=      5-min Rain = 0
KPG1 200507Z 03009KT 19/08 A299 RMK A01 T01910082  RH  049%=      5-min Rain = 0
KPG1 200508Z 03009KT 19/08 A299 RMK A01 T01900082  RH  049%=      5-min Rain = 0
KPG1 200509Z 04008KT 19/08 A2989 RMK A01 T01900082  RH  049%=      5-min Rain = 0
KPG1 200510Z 04008KT 19/08 A2989 RMK A01 T01900082  RH  049%=      5-min Rain = 0
KPG1 200511Z 04008KT 19/08 A2989 RMK A01 T01900082  RH  049%=      5-min Rain = 0
KPG1 200512Z 04008KT 19/08 A2989 RMK A01 T01900082  RH  049%=      5-min Rain = 0
KPG1 200513Z 04009KT 19/08 A2989 RMK A01 T01900082  RH  049%=      5-min Rain = 0
KPG1 200514Z 04009KT 19/08 A2989 RMK A01 T01900082  RH  049%=      5-min Rain = 0
KPG1 200515Z 04009KT 19/08 A2989 RMK A01 T01900082  RH  049%=      5-min Rain = 0
KPG1 200516Z 04010KT 19/08 A2989 RMK A01 T01900082  RH  049%=      5-min Rain = 0
KPG1 200517Z 04009KT 19/08 A2989 RMK A01 T01910083  RH  049%=      5-min Rain = 0
KPG1 200518Z 04010KT 19/08 A2989 RMK A01 T01910083  RH  049%=      5-min Rain = 0
KPG1 200519Z 04010KT 19/08 A2989 RMK A01 T01920083  RH  049%=      5-min Rain = 0
KPG1 200520Z 04010KT 19/08 A2989 RMK A01 T01930083  RH  049%=      5-min Rain = 0
KPG1 200521Z 04010KT 19/08 A2989 RMK A01 T01930083  RH  049%=      5-min Rain = 0
KPG1 200522Z 04010KT 19/08 A2989 RMK A01 T01930083  RH  049%=      5-min Rain = 0
KPG1 200523Z 04010KT 19/08 A2989 RMK A01 T01930083  RH  049%=      5-min Rain = 0
KPG1 200524Z 05009KT 19/08 A2989 RMK A01 T01930082  RH  049%=      5-min Rain = 0
KPG1 200525Z 05009KT 19/08 A2989 RMK A01 T01930083  RH  049%=      5-min Rain = 0
KPG1 200526Z 05009KT 19/08 A2989 RMK A01 T01930083  RH  049%=      5-min Rain = 0
KPG1 200527Z 05009KT 19/08 A2989 RMK A01 T01930083  RH  049%=      5-min Rain = 0
KPG1 200528Z 05010KT 19/08 A2989 RMK A01 T01930083  RH  049%=      5-min Rain = 0
KPG1 200529Z 04010KT 19/08 A2989 RMK A01 T01940083  RH  049%=      5-min Rain = 0
KPG1 200530Z 04010KT 19/08 A2989 RMK A01 T01930083  RH  049%=      5-min Rain = 0
KPG1 200531Z 04010KT 19/08 A2989 RMK A01 T01930083  RH  049%=      5-min Rain = 0
KPG1 200532Z 04009KT 19/08 A2989 RMK A01 T01930083  RH  049%=      5-min Rain = 0
KPG1 200533Z 04009KT 19/08 A2989 RMK A01 T01930083  RH  049%=      5-min Rain = 0
KPG1 200534Z 04010KT 19/08 A2989 RMK A01 T01930083  RH  049%=      5-min Rain = 0
KPG1 200535Z 04009KT 19/08 A2989 RMK A01 T01930083  RH  049%=      5-min Rain = 0
KPG1 200536Z 04008KT 19/08 A2989 RMK A01 T01930082  RH  049%=      5-min Rain = 0
KPG1 200537Z 04009KT 19/08 A2989 RMK A01 T01930082  RH  049%=      5-min Rain = 0
KPG1 200538Z 05009KT 19/08 A2989 RMK A01 T01920083  RH  049%=      5-min Rain = 0
KPG1 200539Z 04009KT 19/08 A2989 RMK A01 T01920083  RH  049%=      5-min Rain = 0
KPG1 200540Z 05008KT 19/08 A2989 RMK A01 T01920083  RH  049%=      5-min Rain = 0
KPG1 200541Z 04008KT 19/08 A2989 RMK A01 T01910083  RH  049%=      5-min Rain = 0
KPG1 200542Z 05008KT 19/08 A2989 RMK A01 T01910083  RH  049%=      5-min Rain = 0
KPG1 200543Z 04007KT 19/08 A2989 RMK A01 T01910083  RH  049%=      5-min Rain = 0
KPG1 200544Z 04007KT 19/08 A2988 RMK A01 T01910083  RH  050%=      5-min Rain = 0
KPG1 200545Z 05007KT 19/08 A2988 RMK A01 T01900083  RH  050%=      5-min Rain = 0
KPG1 200546Z 04007KT 19/08 A2988 RMK A01 T01900083  RH  050%=      5-min Rain = 0
KPG1 200547Z 06008KT 19/08 A2988 RMK A01 T01900083  RH  050%=      5-min Rain = 0
KPG1 200548Z 05008KT 19/08 A2988 RMK A01 T01900083  RH  050%=      5-min Rain = 0
KPG1 200549Z 05009KT 19/08 A2988 RMK A01 T01910083  RH  050%=      5-min Rain = 0
KPG1 200550Z 05008KT 19/08 A2988 RMK A01 T01920083  RH  049%=      5-min Rain = 0
KPG1 200551Z 05008KT 19/08 A2988 RMK A01 T01920083  RH  049%=      5-min Rain = 0
KPG1 200552Z 05009KT 19/08 A2988 RMK A01 T01920083  RH  049%=      5-min Rain = 0
KPG1 200553Z 05009KT 19/08 A2988 RMK A01 T01930083  RH  049%=      5-min Rain = 0
KPG1 200554Z 05008KT 19/08 A2989 RMK A01 T01930083  RH  049%=      5-min Rain = 0
KPG1 200555Z 05008KT 19/08 A2989 RMK A01 T01930083  RH  049%=      5-min Rain = 0
KPG1 200556Z 05007KT 19/08 A2989 RMK A01 T01940083  RH  049%=      5-min Rain = 0
KPG1 200557Z 04007KT 19/08 A2989 RMK A01 T01920083  RH  049%=      5-min Rain = 0
KPG1 200558Z 04007KT 19/08 A2988 RMK A01 T01910082  RH  049%=      5-min Rain = 0
KPG1 200559Z 04007KT 19/08 A2988 RMK A01 T01900082  RH  050%=      5-min Rain = 0

Page generated in 0.1191 seconds.